VIR132K TBPB-EGLL
Flight info
| Callsign | VIR132K |
|---|---|
| Flight time | 7h 45m |
| Altitude | 37000 |
| Route | FISST/M085F370 DCT 19N055W 23N050W 26N045W/M085F390 29N040W 35N030W DCT GINSU DCT 41N020W/M085F410 DCT GONAN DCT ETIKI DCT REGHI/N0490F410 DCT AMPOP DCT SIDDI DCT DAWLY DCT ELRIP DCT OTMET |
| Aircraft | B789/H-SDE1E2E3FGHIJ2J3J4J5M1RWXY/LB1D1 |
Departure
| Time | 2026-05-05 08:29 |
|---|---|
| Airport | Grantley Adams International Airport (TBPB) |
Arrival
| Time | 2026-05-05 16:14 |
|---|---|
| Airport | London Heathrow Airport (EGLL) |
| Time | Latitude | Longitude | Altitude | Speed | Heading |
|---|---|---|---|---|---|
| 2026-05-05 08:13 | 13.07942 | -59.48493 | 174 ft | 0 kts | 0° |
| 2026-05-05 08:18 | 13.07939 | -59.48493 | 174 ft | 2 kts | 0° |
| 2026-05-05 08:18 | 13.07922 | -59.48493 | 174 ft | 2 kts | 356° |
| 2026-05-05 08:19 | 13.07906 | -59.48491 | 174 ft | 2 kts | 352° |
| 2026-05-05 08:19 | 13.07890 | -59.48488 | 174 ft | 2 kts | 343° |
| 2026-05-05 08:19 | 13.07874 | -59.48482 | 174 ft | 2 kts | 327° |
| 2026-05-05 08:19 | 13.07861 | -59.48472 | 174 ft | 2 kts | 332° |
| 2026-05-05 08:20 | 13.07848 | -59.48463 | 174 ft | 2 kts | 282° |
| 2026-05-05 08:20 | 13.07847 | -59.48446 | 174 ft | 2 kts | 260° |
| 2026-05-05 08:20 | 13.07850 | -59.48433 | 174 ft | 1 kts | 257° |
| 2026-05-05 08:20 | 13.07850 | -59.48431 | 174 ft | 0 kts | 257° |
| 2026-05-05 08:21 | 13.07850 | -59.48432 | 174 ft | 0 kts | 257° |
| 2026-05-05 08:21 | 13.07849 | -59.48436 | 174 ft | 1 kts | 257° |
| 2026-05-05 08:21 | 13.07847 | -59.48447 | 174 ft | 2 kts | 257° |
| 2026-05-05 08:21 | 13.07840 | -59.48476 | 174 ft | 6 kts | 257° |
| 2026-05-05 08:22 | 13.07828 | -59.48529 | 174 ft | 9 kts | 256° |
| 2026-05-05 08:22 | 13.07810 | -59.48603 | 174 ft | 12 kts | 256° |
| 2026-05-05 08:22 | 13.07788 | -59.48696 | 174 ft | 14 kts | 256° |
| 2026-05-05 08:22 | 13.07738 | -59.48781 | 175 ft | 14 kts | 238° |
| 2026-05-05 08:23 | 13.07711 | -59.48871 | 175 ft | 13 kts | 257° |
| 2026-05-05 08:23 | 13.07691 | -59.48963 | 176 ft | 14 kts | 257° |
| 2026-05-05 08:23 | 13.07666 | -59.49065 | 176 ft | 15 kts | 255° |
| 2026-05-05 08:23 | 13.07639 | -59.49172 | 176 ft | 16 kts | 256° |
| 2026-05-05 08:24 | 13.07611 | -59.49289 | 176 ft | 17 kts | 256° |
| 2026-05-05 08:24 | 13.07581 | -59.49415 | 176 ft | 19 kts | 256° |
| 2026-05-05 08:24 | 13.07549 | -59.49548 | 177 ft | 20 kts | 256° |
| 2026-05-05 08:24 | 13.07514 | -59.49689 | 177 ft | 21 kts | 256° |
| 2026-05-05 08:25 | 13.07478 | -59.49833 | 177 ft | 21 kts | 256° |
| 2026-05-05 08:25 | 13.07444 | -59.49974 | 178 ft | 20 kts | 256° |
| 2026-05-05 08:25 | 13.07410 | -59.50112 | 178 ft | 20 kts | 255° |
| 2026-05-05 08:25 | 13.07380 | -59.50232 | 178 ft | 17 kts | 256° |
| 2026-05-05 08:26 | 13.07352 | -59.50346 | 179 ft | 16 kts | 256° |
| 2026-05-05 08:26 | 13.07325 | -59.50458 | 179 ft | 16 kts | 256° |
| 2026-05-05 08:26 | 13.07297 | -59.50569 | 179 ft | 16 kts | 256° |
| 2026-05-05 08:26 | 13.07270 | -59.50677 | 179 ft | 12 kts | 256° |
| 2026-05-05 08:27 | 13.07229 | -59.50727 | 179 ft | 6 kts | 187° |
| 2026-05-05 08:27 | 13.07182 | -59.50724 | 179 ft | 7 kts | 171° |
| 2026-05-05 08:27 | 13.07132 | -59.50710 | 179 ft | 8 kts | 162° |
| 2026-05-05 08:27 | 13.07110 | -59.50684 | 179 ft | 6 kts | 112° |
| 2026-05-05 08:28 | 13.07114 | -59.50642 | 179 ft | 8 kts | 80° |
| 2026-05-05 08:28 | 13.07138 | -59.50538 | 179 ft | 27 kts | 76° |
| 2026-05-05 08:28 | 13.07245 | -59.50103 | 180 ft | 102 kts | 76° |
| 2026-05-05 08:28 | 13.07478 | -59.49144 | 180 ft | 172 kts | 76° |
| 2026-05-05 08:29 | 13.07766 | -59.47866 | 724 ft | 194 kts | 76° |
| 2026-05-05 08:29 | 13.08025 | -59.46509 | 1625 ft | 194 kts | 79° |
| 2026-05-05 08:29 | 13.08288 | -59.45087 | 2159 ft | 216 kts | 79° |
| 2026-05-05 08:30 | 13.09181 | -59.41768 | 3112 ft | 262 kts | 73° |
| 2026-05-05 08:30 | 13.09922 | -59.40090 | 3998 ft | 267 kts | 47° |
| 2026-05-05 08:30 | 13.11411 | -59.39007 | 5204 ft | 264 kts | 30° |
| 2026-05-05 08:30 | 13.13033 | -59.38065 | 6198 ft | 270 kts | 29° |
| 2026-05-05 08:31 | 13.14652 | -59.37064 | 7228 ft | 274 kts | 32° |
| 2026-05-05 08:31 | 13.16244 | -59.35965 | 8194 ft | 278 kts | 34° |
| 2026-05-05 08:31 | 13.17862 | -59.34841 | 9167 ft | 282 kts | 33° |
| 2026-05-05 08:31 | 13.19513 | -59.33726 | 10104 ft | 287 kts | 33° |
| 2026-05-05 08:32 | 13.21242 | -59.32568 | 10560 ft | 310 kts | 33° |
| 2026-05-05 08:32 | 13.23125 | -59.31297 | 10829 ft | 338 kts | 33° |
| 2026-05-05 08:32 | 13.25165 | -59.29913 | 11064 ft | 365 kts | 33° |
| 2026-05-05 08:32 | 13.27316 | -59.28457 | 11833 ft | 371 kts | 33° |
| 2026-05-05 08:33 | 13.29483 | -59.26991 | 12686 ft | 376 kts | 33° |
| 2026-05-05 08:33 | 13.31683 | -59.25504 | 13490 ft | 381 kts | 33° |
| 2026-05-05 08:33 | 13.33909 | -59.23997 | 14288 ft | 385 kts | 33° |
| 2026-05-05 08:33 | 13.36158 | -59.22474 | 15034 ft | 390 kts | 33° |
| 2026-05-05 08:34 | 13.38437 | -59.20931 | 15779 ft | 394 kts | 33° |
| 2026-05-05 08:34 | 13.40739 | -59.19372 | 16492 ft | 399 kts | 33° |
| 2026-05-05 08:34 | 13.43067 | -59.17795 | 17186 ft | 403 kts | 33° |
| 2026-05-05 08:34 | 13.45415 | -59.16204 | 17856 ft | 407 kts | 33° |
| 2026-05-05 08:35 | 13.47794 | -59.14591 | 18511 ft | 411 kts | 33° |
| 2026-05-05 08:35 | 13.50192 | -59.12965 | 19144 ft | 415 kts | 33° |
| 2026-05-05 08:35 | 13.51825 | -59.11859 | 19563 ft | 418 kts | 33° |
| 2026-05-05 08:35 | 13.54261 | -59.10206 | 20161 ft | 421 kts | 33° |
| 2026-05-05 08:36 | 13.56719 | -59.08539 | 20740 ft | 425 kts | 33° |
| 2026-05-05 08:36 | 13.59198 | -59.06857 | 21300 ft | 429 kts | 33° |
| 2026-05-05 08:36 | 13.61698 | -59.05160 | 21830 ft | 432 kts | 33° |
| 2026-05-05 08:36 | 13.64218 | -59.03449 | 22349 ft | 436 kts | 33° |
| 2026-05-05 08:37 | 13.66757 | -59.01725 | 22843 ft | 439 kts | 33° |
| 2026-05-05 08:37 | 13.69312 | -58.99989 | 23320 ft | 442 kts | 33° |
| 2026-05-05 08:37 | 13.71888 | -58.98238 | 23780 ft | 445 kts | 33° |
| 2026-05-05 08:37 | 13.74483 | -58.96475 | 24240 ft | 448 kts | 33° |
| 2026-05-05 08:38 | 13.77095 | -58.94699 | 24666 ft | 451 kts | 33° |
| 2026-05-05 08:38 | 13.79723 | -58.92912 | 25086 ft | 454 kts | 33° |
| 2026-05-05 08:38 | 13.82369 | -58.91113 | 25503 ft | 457 kts | 33° |
| 2026-05-05 08:38 | 13.85030 | -58.89302 | 25903 ft | 460 kts | 33° |
| 2026-05-05 08:39 | 13.87708 | -58.87480 | 26301 ft | 463 kts | 33° |
| 2026-05-05 08:39 | 13.90399 | -58.85648 | 26700 ft | 466 kts | 33° |
| 2026-05-05 08:39 | 13.93108 | -58.83803 | 27078 ft | 468 kts | 33° |
| 2026-05-05 08:39 | 13.95797 | -58.81971 | 27451 ft | 471 kts | 33° |
| 2026-05-05 08:40 | 13.98538 | -58.80104 | 27836 ft | 474 kts | 33° |
| 2026-05-05 08:40 | 14.01294 | -58.78226 | 28198 ft | 476 kts | 33° |
| 2026-05-05 08:40 | 14.04065 | -58.76336 | 28559 ft | 479 kts | 33° |
| 2026-05-05 08:40 | 14.06888 | -58.74412 | 28914 ft | 482 kts | 33° |
| 2026-05-05 08:41 | 14.09648 | -58.72529 | 29254 ft | 484 kts | 33° |
| 2026-05-05 08:41 | 14.12463 | -58.70608 | 29588 ft | 487 kts | 33° |
| 2026-05-05 08:41 | 14.15292 | -58.68677 | 29917 ft | 489 kts | 33° |
| 2026-05-05 08:41 | 14.18174 | -58.66709 | 30237 ft | 491 kts | 33° |
| 2026-05-05 08:42 | 14.20992 | -58.64784 | 30550 ft | 494 kts | 33° |
| 2026-05-05 08:42 | 14.23862 | -58.62824 | 30844 ft | 496 kts | 33° |
| 2026-05-05 08:42 | 14.26745 | -58.60853 | 31136 ft | 498 kts | 33° |
| 2026-05-05 08:42 | 14.29680 | -58.58847 | 31444 ft | 501 kts | 33° |
| 2026-05-05 08:43 | 14.32588 | -58.56858 | 31724 ft | 503 kts | 33° |
| 2026-05-05 08:43 | 14.35460 | -58.54894 | 32144 ft | 501 kts | 33° |
| 2026-05-05 08:43 | 14.38397 | -58.52884 | 32561 ft | 500 kts | 33° |
| 2026-05-05 08:43 | 14.41256 | -58.50927 | 32956 ft | 499 kts | 33° |
| 2026-05-05 08:44 | 14.44149 | -58.48947 | 33359 ft | 499 kts | 33° |
| 2026-05-05 08:44 | 14.47036 | -58.46969 | 33747 ft | 498 kts | 33° |
| 2026-05-05 08:44 | 14.49918 | -58.44994 | 34129 ft | 497 kts | 33° |
| 2026-05-05 08:44 | 14.52796 | -58.43022 | 34501 ft | 496 kts | 33° |
| 2026-05-05 08:45 | 14.55669 | -58.41053 | 34870 ft | 495 kts | 33° |
| 2026-05-05 08:45 | 14.58534 | -58.39088 | 35231 ft | 494 kts | 33° |
| 2026-05-05 08:45 | 14.61397 | -58.37124 | 35584 ft | 494 kts | 33° |
| 2026-05-05 08:45 | 14.64256 | -58.35162 | 35928 ft | 493 kts | 33° |
| 2026-05-05 08:46 | 14.67110 | -58.33203 | 36261 ft | 492 kts | 33° |
| 2026-05-05 08:46 | 14.69962 | -58.31245 | 36565 ft | 492 kts | 33° |
| 2026-05-05 08:46 | 14.72814 | -58.29286 | 36850 ft | 492 kts | 33° |
| 2026-05-05 08:46 | 14.75670 | -58.27323 | 36994 ft | 496 kts | 33° |
| 2026-05-05 08:47 | 14.78549 | -58.25345 | 36995 ft | 497 kts | 33° |
| 2026-05-05 08:47 | 14.84275 | -58.21407 | 36995 ft | 492 kts | 33° |
| 2026-05-05 08:48 | 14.89968 | -58.17489 | 36992 ft | 491 kts | 33° |
| 2026-05-05 08:48 | 14.95657 | -58.13573 | 36992 ft | 491 kts | 33° |
| 2026-05-05 08:49 | 15.01340 | -58.09657 | 36993 ft | 491 kts | 33° |
| 2026-05-05 08:49 | 15.07027 | -58.05736 | 36995 ft | 491 kts | 33° |
| 2026-05-05 08:50 | 15.12711 | -58.01815 | 36994 ft | 491 kts | 33° |
| 2026-05-05 08:50 | 15.18394 | -57.97892 | 36993 ft | 491 kts | 33° |
| 2026-05-05 08:51 | 15.24072 | -57.93969 | 36993 ft | 491 kts | 33° |
| 2026-05-05 08:51 | 15.29751 | -57.90044 | 36993 ft | 491 kts | 33° |
| 2026-05-05 08:52 | 15.35428 | -57.86118 | 36992 ft | 490 kts | 33° |
| 2026-05-05 08:52 | 15.41100 | -57.82191 | 36992 ft | 490 kts | 33° |
| 2026-05-05 08:53 | 15.46770 | -57.78265 | 36994 ft | 490 kts | 33° |
| 2026-05-05 08:53 | 15.52441 | -57.74334 | 36996 ft | 491 kts | 33° |
| 2026-05-05 08:54 | 15.58125 | -57.70392 | 36999 ft | 492 kts | 33° |
| 2026-05-05 08:54 | 15.63820 | -57.66440 | 37003 ft | 493 kts | 33° |
| 2026-05-05 08:55 | 15.69521 | -57.62480 | 37006 ft | 493 kts | 33° |
| 2026-05-05 08:55 | 15.75221 | -57.58519 | 37008 ft | 493 kts | 33° |
| 2026-05-05 08:56 | 15.80923 | -57.54553 | 37009 ft | 493 kts | 33° |
| 2026-05-05 08:56 | 15.86624 | -57.50586 | 37009 ft | 493 kts | 33° |
| 2026-05-05 08:57 | 15.92324 | -57.46616 | 37010 ft | 493 kts | 33° |
| 2026-05-05 08:57 | 15.98023 | -57.42644 | 37010 ft | 493 kts | 33° |
| 2026-05-05 08:58 | 16.03719 | -57.38673 | 37011 ft | 493 kts | 33° |
| 2026-05-05 08:58 | 16.09416 | -57.34697 | 37011 ft | 493 kts | 33° |
| 2026-05-05 08:59 | 16.15075 | -57.30745 | 37011 ft | 493 kts | 33° |
| 2026-05-05 08:59 | 16.20768 | -57.26766 | 37012 ft | 493 kts | 33° |
| 2026-05-05 09:00 | 16.26461 | -57.22785 | 37012 ft | 493 kts | 33° |
| 2026-05-05 09:00 | 16.32153 | -57.18801 | 37012 ft | 493 kts | 33° |
| 2026-05-05 09:01 | 16.37841 | -57.14818 | 37011 ft | 493 kts | 34° |
| 2026-05-05 09:01 | 16.43526 | -57.10833 | 37011 ft | 492 kts | 34° |
| 2026-05-05 09:02 | 16.49206 | -57.06849 | 37011 ft | 492 kts | 34° |
| 2026-05-05 09:02 | 16.54887 | -57.02863 | 37011 ft | 492 kts | 34° |
| 2026-05-05 09:03 | 16.60564 | -56.98875 | 37010 ft | 492 kts | 34° |
| 2026-05-05 09:03 | 16.66236 | -56.94889 | 37010 ft | 491 kts | 34° |
| 2026-05-05 09:04 | 16.71900 | -56.90904 | 37009 ft | 491 kts | 34° |
| 2026-05-05 09:04 | 16.77563 | -56.86919 | 37008 ft | 491 kts | 34° |
| 2026-05-05 09:05 | 16.83221 | -56.82933 | 37007 ft | 490 kts | 34° |
| 2026-05-05 09:05 | 16.88869 | -56.78952 | 37005 ft | 490 kts | 34° |
| 2026-05-05 09:06 | 16.94516 | -56.74968 | 37004 ft | 490 kts | 34° |
| 2026-05-05 09:06 | 17.00169 | -56.70978 | 37006 ft | 491 kts | 34° |
| 2026-05-05 09:07 | 17.05842 | -56.66970 | 37011 ft | 493 kts | 34° |
| 2026-05-05 09:07 | 17.11523 | -56.62953 | 37011 ft | 493 kts | 34° |
| 2026-05-05 09:08 | 17.17209 | -56.58930 | 37009 ft | 493 kts | 34° |
| 2026-05-05 09:08 | 17.22885 | -56.54911 | 37010 ft | 493 kts | 34° |
| 2026-05-05 09:09 | 17.28561 | -56.50889 | 37010 ft | 493 kts | 34° |
| 2026-05-05 09:09 | 17.34194 | -56.46894 | 37010 ft | 492 kts | 34° |
| 2026-05-05 09:10 | 17.39865 | -56.42870 | 37010 ft | 492 kts | 34° |
| 2026-05-05 09:10 | 17.45533 | -56.38844 | 37010 ft | 492 kts | 34° |
| 2026-05-05 09:11 | 17.51197 | -56.34818 | 37009 ft | 492 kts | 34° |
| 2026-05-05 09:11 | 17.56897 | -56.30764 | 37009 ft | 492 kts | 34° |
| 2026-05-05 09:12 | 17.62556 | -56.26736 | 37009 ft | 491 kts | 34° |
| 2026-05-05 09:12 | 17.68207 | -56.22709 | 37008 ft | 491 kts | 34° |
| 2026-05-05 09:13 | 17.73857 | -56.18681 | 37007 ft | 491 kts | 34° |
| 2026-05-05 09:13 | 17.79501 | -56.14654 | 37006 ft | 490 kts | 34° |
| 2026-05-05 09:14 | 17.85140 | -56.10628 | 37005 ft | 490 kts | 34° |
| 2026-05-05 09:14 | 17.90773 | -56.06603 | 37005 ft | 490 kts | 34° |
| 2026-05-05 09:15 | 17.96385 | -56.02589 | 37008 ft | 492 kts | 34° |
| 2026-05-05 09:15 | 18.01808 | -55.98219 | 37018 ft | 492 kts | 43° |
| 2026-05-05 09:16 | 18.06776 | -55.93275 | 37007 ft | 492 kts | 43° |
| 2026-05-05 09:16 | 18.11749 | -55.88341 | 37009 ft | 491 kts | 43° |
| 2026-05-05 09:17 | 18.16712 | -55.83407 | 37010 ft | 491 kts | 43° |
| 2026-05-05 09:17 | 18.21669 | -55.78475 | 37010 ft | 490 kts | 43° |
| 2026-05-05 09:18 | 18.26622 | -55.73545 | 37010 ft | 490 kts | 43° |
| 2026-05-05 09:18 | 18.31579 | -55.68605 | 37010 ft | 492 kts | 43° |
| 2026-05-05 09:19 | 18.36550 | -55.63648 | 37012 ft | 492 kts | 43° |
| 2026-05-05 09:19 | 18.40683 | -55.59523 | 37010 ft | 493 kts | 43° |
| 2026-05-05 09:20 | 18.45658 | -55.54553 | 37010 ft | 493 kts | 43° |
| 2026-05-05 09:20 | 18.50632 | -55.49581 | 37011 ft | 493 kts | 43° |
| 2026-05-05 09:21 | 18.55609 | -55.44602 | 37009 ft | 493 kts | 43° |
| 2026-05-05 09:21 | 18.60585 | -55.39619 | 37010 ft | 493 kts | 43° |
| 2026-05-05 09:22 | 18.65558 | -55.34635 | 37010 ft | 493 kts | 43° |
| 2026-05-05 09:22 | 18.70525 | -55.29653 | 37010 ft | 493 kts | 43° |
| 2026-05-05 09:23 | 18.75492 | -55.24668 | 37010 ft | 493 kts | 43° |
| 2026-05-05 09:23 | 18.80454 | -55.19682 | 37010 ft | 492 kts | 43° |
| 2026-05-05 09:24 | 18.85413 | -55.14695 | 37009 ft | 492 kts | 43° |
| 2026-05-05 09:24 | 18.90368 | -55.09709 | 37009 ft | 492 kts | 43° |
| 2026-05-05 09:25 | 18.95319 | -55.04721 | 37008 ft | 492 kts | 43° |
| 2026-05-05 09:25 | 19.00239 | -54.99714 | 37008 ft | 491 kts | 48° |
| 2026-05-05 09:26 | 19.04763 | -54.94298 | 37007 ft | 492 kts | 48° |
| 2026-05-05 09:26 | 19.09295 | -54.88868 | 37011 ft | 493 kts | 48° |
| 2026-05-05 09:27 | 19.13830 | -54.83427 | 37011 ft | 493 kts | 48° |
| 2026-05-05 09:27 | 19.18396 | -54.77946 | 37009 ft | 494 kts | 48° |
| 2026-05-05 09:28 | 19.22902 | -54.72531 | 37010 ft | 493 kts | 49° |
| 2026-05-05 09:28 | 19.27435 | -54.67078 | 37011 ft | 493 kts | 49° |
| 2026-05-05 09:29 | 19.31965 | -54.61625 | 37011 ft | 493 kts | 49° |
| 2026-05-05 09:29 | 19.36488 | -54.56174 | 37011 ft | 493 kts | 49° |
| 2026-05-05 09:30 | 19.41009 | -54.50721 | 37010 ft | 492 kts | 49° |
| 2026-05-05 09:30 | 19.45528 | -54.45266 | 37010 ft | 492 kts | 49° |
| 2026-05-05 09:31 | 19.50043 | -54.39810 | 37010 ft | 492 kts | 49° |
| 2026-05-05 09:31 | 19.54555 | -54.34353 | 37009 ft | 492 kts | 49° |
| 2026-05-05 09:32 | 19.59065 | -54.28893 | 37009 ft | 492 kts | 49° |
| 2026-05-05 09:32 | 19.63570 | -54.23436 | 37008 ft | 491 kts | 49° |
| 2026-05-05 09:33 | 19.68070 | -54.17978 | 37008 ft | 491 kts | 49° |
| 2026-05-05 09:33 | 19.72562 | -54.12525 | 37007 ft | 491 kts | 49° |
| 2026-05-05 09:34 | 19.77052 | -54.07069 | 37006 ft | 490 kts | 49° |
| 2026-05-05 09:34 | 19.81537 | -54.01615 | 37005 ft | 490 kts | 49° |
| 2026-05-05 09:35 | 19.85989 | -53.96195 | 37004 ft | 490 kts | 49° |
| 2026-05-05 09:35 | 19.92707 | -53.88008 | 37005 ft | 490 kts | 49° |
| 2026-05-05 09:36 | 19.97216 | -53.82506 | 37006 ft | 491 kts | 49° |
| 2026-05-05 09:36 | 20.01707 | -53.77021 | 37010 ft | 493 kts | 49° |
| 2026-05-05 09:37 | 20.06212 | -53.71514 | 37011 ft | 494 kts | 49° |
| 2026-05-05 09:37 | 20.10722 | -53.65995 | 37010 ft | 494 kts | 49° |
| 2026-05-05 09:38 | 20.15222 | -53.60483 | 37010 ft | 492 kts | 49° |
| 2026-05-05 09:38 | 20.19706 | -53.54986 | 37007 ft | 491 kts | 49° |
| 2026-05-05 09:39 | 20.24182 | -53.49493 | 37004 ft | 490 kts | 49° |
| 2026-05-05 09:39 | 20.28650 | -53.44005 | 37003 ft | 491 kts | 49° |
| 2026-05-05 09:40 | 20.33093 | -53.38543 | 37003 ft | 491 kts | 49° |
| 2026-05-05 09:40 | 20.37568 | -53.33036 | 37004 ft | 491 kts | 49° |
| 2026-05-05 09:41 | 20.42037 | -53.27530 | 37004 ft | 491 kts | 49° |
| 2026-05-05 09:41 | 20.46506 | -53.22019 | 37005 ft | 491 kts | 49° |
| 2026-05-05 09:42 | 20.50973 | -53.16506 | 37005 ft | 491 kts | 49° |
| 2026-05-05 09:42 | 20.55437 | -53.10990 | 37005 ft | 491 kts | 49° |
| 2026-05-05 09:43 | 20.59895 | -53.05477 | 37005 ft | 491 kts | 49° |
| 2026-05-05 09:43 | 20.64350 | -52.99962 | 37004 ft | 490 kts | 49° |
| 2026-05-05 09:44 | 20.68808 | -52.94439 | 37005 ft | 492 kts | 49° |
| 2026-05-05 09:44 | 20.73274 | -52.88899 | 37008 ft | 492 kts | 49° |
| 2026-05-05 09:45 | 20.77741 | -52.83353 | 37010 ft | 493 kts | 49° |
| 2026-05-05 09:45 | 20.82214 | -52.77794 | 37008 ft | 493 kts | 49° |
| 2026-05-05 09:46 | 20.86689 | -52.72227 | 37011 ft | 494 kts | 49° |
| 2026-05-05 09:46 | 20.91161 | -52.66658 | 37010 ft | 494 kts | 49° |
| 2026-05-05 09:47 | 20.95633 | -52.61084 | 37010 ft | 493 kts | 49° |
| 2026-05-05 09:47 | 21.00101 | -52.55510 | 37010 ft | 493 kts | 49° |
| 2026-05-05 09:48 | 21.04564 | -52.49934 | 37009 ft | 493 kts | 49° |
| 2026-05-05 09:48 | 21.09023 | -52.44359 | 37008 ft | 493 kts | 49° |
| 2026-05-05 09:49 | 21.13476 | -52.38787 | 37007 ft | 492 kts | 49° |
| 2026-05-05 09:49 | 21.17926 | -52.33212 | 37006 ft | 492 kts | 49° |
| 2026-05-05 09:50 | 21.22372 | -52.27636 | 37005 ft | 492 kts | 49° |
| 2026-05-05 09:50 | 21.26814 | -52.22060 | 37004 ft | 492 kts | 49° |
| 2026-05-05 09:51 | 21.31249 | -52.16487 | 37003 ft | 491 kts | 49° |
| 2026-05-05 09:51 | 21.35681 | -52.10912 | 37002 ft | 491 kts | 49° |
| 2026-05-05 09:52 | 21.40107 | -52.05338 | 37001 ft | 490 kts | 49° |
| 2026-05-05 09:52 | 21.44531 | -51.99762 | 37000 ft | 491 kts | 49° |
| 2026-05-05 09:53 | 21.48965 | -51.94168 | 37003 ft | 492 kts | 49° |
| 2026-05-05 09:53 | 21.53407 | -51.88557 | 37006 ft | 493 kts | 49° |
| 2026-05-05 09:54 | 21.57853 | -51.82936 | 37009 ft | 494 kts | 49° |
| 2026-05-05 09:54 | 21.62328 | -51.77272 | 37011 ft | 494 kts | 49° |
| 2026-05-05 09:55 | 21.66741 | -51.71681 | 37011 ft | 494 kts | 50° |
| 2026-05-05 09:55 | 21.71179 | -51.66052 | 37011 ft | 493 kts | 50° |
| 2026-05-05 09:56 | 21.75616 | -51.60419 | 37011 ft | 493 kts | 50° |
| 2026-05-05 09:56 | 21.80050 | -51.54782 | 37011 ft | 493 kts | 50° |
| 2026-05-05 09:57 | 21.84482 | -51.49144 | 37011 ft | 493 kts | 50° |
| 2026-05-05 09:57 | 21.88906 | -51.43509 | 37010 ft | 493 kts | 50° |
| 2026-05-05 09:58 | 21.93328 | -51.37871 | 37009 ft | 492 kts | 50° |
| 2026-05-05 09:58 | 21.97745 | -51.32234 | 37008 ft | 492 kts | 50° |
| 2026-05-05 09:59 | 22.02157 | -51.26596 | 37007 ft | 492 kts | 50° |
| 2026-05-05 09:59 | 22.06561 | -51.20963 | 37005 ft | 491 kts | 50° |
| 2026-05-05 10:00 | 22.10963 | -51.15328 | 37004 ft | 491 kts | 50° |
| 2026-05-05 10:00 | 22.14648 | -51.10604 | 37003 ft | 491 kts | 50° |
| 2026-05-05 10:01 | 22.19038 | -51.04972 | 37002 ft | 490 kts | 50° |
| 2026-05-05 10:01 | 22.23426 | -50.99337 | 37001 ft | 490 kts | 50° |
| 2026-05-05 10:02 | 22.27813 | -50.93696 | 37001 ft | 491 kts | 50° |
| 2026-05-05 10:02 | 22.32210 | -50.88037 | 37004 ft | 492 kts | 50° |
| 2026-05-05 10:03 | 22.36610 | -50.82368 | 37007 ft | 493 kts | 50° |
| 2026-05-05 10:03 | 22.41014 | -50.76687 | 37009 ft | 493 kts | 50° |
| 2026-05-05 10:04 | 22.45421 | -50.70998 | 37011 ft | 494 kts | 50° |
| 2026-05-05 10:04 | 22.49827 | -50.65302 | 37009 ft | 494 kts | 50° |
| 2026-05-05 10:05 | 22.54199 | -50.59645 | 37009 ft | 493 kts | 50° |
| 2026-05-05 10:05 | 22.58597 | -50.53948 | 37009 ft | 493 kts | 50° |
| 2026-05-05 10:06 | 22.62991 | -50.48249 | 37008 ft | 493 kts | 50° |
| 2026-05-05 10:06 | 22.67377 | -50.42554 | 37007 ft | 492 kts | 50° |
| 2026-05-05 10:07 | 22.71762 | -50.36856 | 37006 ft | 492 kts | 50° |
| 2026-05-05 10:07 | 22.76141 | -50.31158 | 37005 ft | 492 kts | 50° |
| 2026-05-05 10:08 | 22.80515 | -50.25460 | 37004 ft | 491 kts | 50° |
| 2026-05-05 10:08 | 22.84881 | -50.19767 | 37002 ft | 491 kts | 50° |
| 2026-05-05 10:09 | 22.89243 | -50.14072 | 37001 ft | 491 kts | 50° |
| 2026-05-05 10:09 | 22.93600 | -50.08378 | 37000 ft | 490 kts | 50° |
| 2026-05-05 10:10 | 22.97958 | -50.02676 | 37000 ft | 492 kts | 50° |
| 2026-05-05 10:10 | 23.02064 | -49.96746 | 37002 ft | 493 kts | 56° |
| 2026-05-05 10:11 | 23.05923 | -49.90594 | 37010 ft | 493 kts | 55° |
| 2026-05-05 10:11 | 23.09799 | -49.84448 | 37010 ft | 493 kts | 56° |
| 2026-05-05 10:12 | 23.13665 | -49.78288 | 37009 ft | 493 kts | 56° |
| 2026-05-05 10:12 | 23.17533 | -49.72129 | 37010 ft | 494 kts | 56° |
| 2026-05-05 10:13 | 23.21399 | -49.65962 | 37011 ft | 494 kts | 56° |
| 2026-05-05 10:13 | 23.25263 | -49.59791 | 37011 ft | 494 kts | 56° |
| 2026-05-05 10:14 | 23.29125 | -49.53616 | 37011 ft | 494 kts | 56° |
| 2026-05-05 10:14 | 23.32982 | -49.47440 | 37009 ft | 494 kts | 56° |
| 2026-05-05 10:15 | 23.36841 | -49.41257 | 37009 ft | 493 kts | 56° |
| 2026-05-05 10:15 | 23.40690 | -49.35079 | 37009 ft | 493 kts | 56° |
| 2026-05-05 10:16 | 23.44538 | -49.28897 | 37008 ft | 493 kts | 56° |
| 2026-05-05 10:16 | 23.48379 | -49.22717 | 37007 ft | 493 kts | 56° |
| 2026-05-05 10:17 | 23.52217 | -49.16536 | 37006 ft | 492 kts | 56° |
| 2026-05-05 10:17 | 23.56050 | -49.10356 | 37005 ft | 492 kts | 56° |
| 2026-05-05 10:18 | 23.59805 | -49.04294 | 37003 ft | 491 kts | 56° |
| 2026-05-05 10:18 | 23.63624 | -48.98120 | 37001 ft | 491 kts | 56° |
| 2026-05-05 10:19 | 23.67443 | -48.91939 | 37107 ft | 493 kts | 56° |
| 2026-05-05 10:19 | 23.69351 | -48.88848 | 37536 ft | 490 kts | 56° |
| 2026-05-05 10:19 | 23.71251 | -48.85769 | 37888 ft | 489 kts | 56° |
| 2026-05-05 10:20 | 23.73150 | -48.82688 | 38164 ft | 489 kts | 56° |
| 2026-05-05 10:20 | 23.75075 | -48.79565 | 38453 ft | 489 kts | 56° |
| 2026-05-05 10:20 | 23.76948 | -48.76522 | 38728 ft | 489 kts | 56° |
| 2026-05-05 10:20 | 23.78843 | -48.73444 | 38992 ft | 489 kts | 56° |
| 2026-05-05 10:21 | 23.80745 | -48.70351 | 39268 ft | 489 kts | 56° |
| 2026-05-05 10:21 | 23.82642 | -48.67264 | 39543 ft | 489 kts | 56° |
| 2026-05-05 10:21 | 23.84537 | -48.64179 | 39806 ft | 490 kts | 56° |
| 2026-05-05 10:21 | 23.86434 | -48.61090 | 40048 ft | 490 kts | 56° |
| 2026-05-05 10:22 | 23.88330 | -48.57999 | 40312 ft | 490 kts | 56° |
| 2026-05-05 10:22 | 23.90225 | -48.54908 | 40567 ft | 490 kts | 56° |
| 2026-05-05 10:22 | 23.92120 | -48.51816 | 40812 ft | 490 kts | 56° |
| 2026-05-05 10:22 | 23.94015 | -48.48721 | 41005 ft | 491 kts | 56° |
| 2026-05-05 10:23 | 23.97833 | -48.42481 | 41010 ft | 492 kts | 56° |
| 2026-05-05 10:23 | 24.01623 | -48.36279 | 40993 ft | 489 kts | 56° |
| 2026-05-05 10:24 | 24.05390 | -48.30107 | 40991 ft | 487 kts | 56° |
| 2026-05-05 10:24 | 24.09148 | -48.23941 | 40992 ft | 487 kts | 56° |
| 2026-05-05 10:25 | 24.12904 | -48.17771 | 40992 ft | 487 kts | 56° |
| 2026-05-05 10:25 | 24.16658 | -48.11597 | 40993 ft | 487 kts | 56° |
| 2026-05-05 10:26 | 24.20414 | -48.05411 | 40993 ft | 488 kts | 56° |
| 2026-05-05 10:26 | 24.24170 | -47.99219 | 40994 ft | 488 kts | 56° |
| 2026-05-05 10:27 | 24.27925 | -47.93020 | 40994 ft | 488 kts | 56° |
| 2026-05-05 10:27 | 24.31676 | -47.86819 | 40993 ft | 488 kts | 56° |
| 2026-05-05 10:28 | 24.35429 | -47.80607 | 40995 ft | 488 kts | 56° |
| 2026-05-05 10:28 | 24.39178 | -47.74394 | 40995 ft | 488 kts | 56° |
| 2026-05-05 10:29 | 24.42922 | -47.68182 | 40996 ft | 488 kts | 56° |
| 2026-05-05 10:29 | 24.46666 | -47.61962 | 40995 ft | 488 kts | 56° |
| 2026-05-05 10:30 | 24.50406 | -47.55741 | 40994 ft | 488 kts | 56° |
| 2026-05-05 10:30 | 24.54143 | -47.49517 | 40993 ft | 488 kts | 56° |
| 2026-05-05 10:31 | 24.57875 | -47.43292 | 40994 ft | 488 kts | 56° |
| 2026-05-05 10:31 | 24.61600 | -47.37071 | 40992 ft | 487 kts | 56° |
| 2026-05-05 10:32 | 24.65324 | -47.30845 | 40994 ft | 487 kts | 56° |
| 2026-05-05 10:32 | 24.69043 | -47.24618 | 40991 ft | 487 kts | 57° |
| 2026-05-05 10:33 | 24.72758 | -47.18390 | 40993 ft | 487 kts | 57° |
| 2026-05-05 10:33 | 24.76473 | -47.12155 | 40996 ft | 488 kts | 57° |
| 2026-05-05 10:34 | 24.80196 | -47.05898 | 40997 ft | 489 kts | 57° |
| 2026-05-05 10:34 | 24.83922 | -46.99627 | 41001 ft | 490 kts | 57° |
| 2026-05-05 10:35 | 24.87651 | -46.93344 | 41001 ft | 490 kts | 57° |
| 2026-05-05 10:35 | 24.91377 | -46.87056 | 41005 ft | 490 kts | 57° |
| 2026-05-05 10:36 | 24.95079 | -46.80801 | 41008 ft | 490 kts | 57° |
| 2026-05-05 10:36 | 24.98828 | -46.74460 | 41006 ft | 490 kts | 57° |
| 2026-05-05 10:37 | 25.02523 | -46.68200 | 41009 ft | 490 kts | 57° |
| 2026-05-05 10:37 | 25.06262 | -46.61858 | 41006 ft | 490 kts | 57° |
| 2026-05-05 10:38 | 25.09975 | -46.55553 | 41004 ft | 490 kts | 57° |
| 2026-05-05 10:38 | 25.13683 | -46.49247 | 41006 ft | 490 kts | 57° |
| 2026-05-05 10:39 | 25.17386 | -46.42940 | 41004 ft | 489 kts | 57° |
| 2026-05-05 10:39 | 25.21086 | -46.36631 | 41003 ft | 489 kts | 57° |
| 2026-05-05 10:40 | 25.24776 | -46.30330 | 41001 ft | 488 kts | 57° |
| 2026-05-05 10:40 | 25.28437 | -46.24070 | 40999 ft | 488 kts | 57° |
| 2026-05-05 10:41 | 25.32117 | -46.17770 | 40997 ft | 488 kts | 57° |
| 2026-05-05 10:41 | 25.35790 | -46.11473 | 40995 ft | 487 kts | 57° |
| 2026-05-05 10:42 | 25.40694 | -46.03054 | 40994 ft | 487 kts | 57° |
| 2026-05-05 10:43 | 25.44357 | -45.96754 | 40994 ft | 487 kts | 57° |
| 2026-05-05 10:43 | 25.48017 | -45.90451 | 40991 ft | 487 kts | 57° |
| 2026-05-05 10:44 | 25.51685 | -45.84127 | 40995 ft | 489 kts | 57° |
| 2026-05-05 10:44 | 25.55365 | -45.77772 | 41003 ft | 491 kts | 57° |
| 2026-05-05 10:45 | 25.59027 | -45.71440 | 41007 ft | 491 kts | 57° |
| 2026-05-05 10:45 | 25.62710 | -45.65064 | 41009 ft | 491 kts | 57° |
| 2026-05-05 10:46 | 25.66412 | -45.58646 | 41011 ft | 491 kts | 57° |
| 2026-05-05 10:46 | 25.70083 | -45.52273 | 41010 ft | 490 kts | 57° |
| 2026-05-05 10:47 | 25.73751 | -45.45895 | 41009 ft | 490 kts | 57° |
| 2026-05-05 10:47 | 25.77415 | -45.39517 | 41008 ft | 490 kts | 57° |
| 2026-05-05 10:48 | 25.81074 | -45.33137 | 41007 ft | 490 kts | 57° |
| 2026-05-05 10:48 | 25.84729 | -45.26757 | 41006 ft | 490 kts | 57° |
| 2026-05-05 10:49 | 25.88377 | -45.20380 | 41005 ft | 489 kts | 57° |
| 2026-05-05 10:49 | 25.92021 | -45.14000 | 41004 ft | 489 kts | 57° |
| 2026-05-05 10:50 | 25.95636 | -45.07665 | 41003 ft | 488 kts | 57° |
| 2026-05-05 10:50 | 25.99266 | -45.01292 | 41000 ft | 488 kts | 57° |
| 2026-05-05 10:51 | 26.03135 | -44.95099 | 41008 ft | 489 kts | 55° |
| 2026-05-05 10:51 | 26.07034 | -44.88875 | 41010 ft | 491 kts | 54° |
| 2026-05-05 10:52 | 26.10982 | -44.82671 | 41011 ft | 491 kts | 55° |
| 2026-05-05 10:52 | 26.14895 | -44.76452 | 41011 ft | 490 kts | 54° |
| 2026-05-05 10:53 | 26.18818 | -44.70243 | 41010 ft | 490 kts | 54° |
| 2026-05-05 10:53 | 26.22727 | -44.64030 | 41009 ft | 490 kts | 55° |
| 2026-05-05 10:54 | 26.26634 | -44.57821 | 41007 ft | 489 kts | 55° |
| 2026-05-05 10:54 | 26.30530 | -44.51616 | 41004 ft | 489 kts | 55° |
| 2026-05-05 10:55 | 26.34423 | -44.45411 | 41002 ft | 488 kts | 55° |
| 2026-05-05 10:55 | 26.38308 | -44.39208 | 41002 ft | 487 kts | 55° |
| 2026-05-05 10:56 | 26.42187 | -44.33006 | 41002 ft | 488 kts | 55° |
| 2026-05-05 10:56 | 26.46070 | -44.26791 | 41002 ft | 489 kts | 55° |
| 2026-05-05 10:57 | 26.49960 | -44.20554 | 41006 ft | 490 kts | 55° |
| 2026-05-05 10:57 | 26.53854 | -44.14303 | 41009 ft | 490 kts | 55° |
| 2026-05-05 10:58 | 26.57750 | -44.08041 | 41011 ft | 491 kts | 55° |
| 2026-05-05 10:58 | 26.61645 | -44.01770 | 41011 ft | 491 kts | 55° |
| 2026-05-05 10:59 | 26.65536 | -43.95499 | 41011 ft | 491 kts | 55° |
| 2026-05-05 10:59 | 26.69422 | -43.89225 | 41012 ft | 491 kts | 55° |
| 2026-05-05 11:00 | 26.73304 | -43.82950 | 41008 ft | 490 kts | 55° |
| 2026-05-05 11:00 | 26.77182 | -43.76674 | 41009 ft | 490 kts | 55° |
| 2026-05-05 11:01 | 26.81054 | -43.70397 | 41007 ft | 490 kts | 55° |
| 2026-05-05 11:01 | 26.84922 | -43.64120 | 41008 ft | 490 kts | 55° |
| 2026-05-05 11:02 | 26.88784 | -43.57841 | 41006 ft | 489 kts | 55° |
| 2026-05-05 11:02 | 26.92639 | -43.51567 | 41006 ft | 489 kts | 55° |
| 2026-05-05 11:03 | 26.96492 | -43.45286 | 41003 ft | 488 kts | 55° |
| 2026-05-05 11:03 | 27.00335 | -43.39013 | 41001 ft | 488 kts | 55° |
| 2026-05-05 11:04 | 27.04173 | -43.32738 | 41000 ft | 488 kts | 55° |
| 2026-05-05 11:04 | 27.08006 | -43.26465 | 40998 ft | 487 kts | 55° |
| 2026-05-05 11:05 | 27.11842 | -43.20176 | 41001 ft | 489 kts | 55° |
| 2026-05-05 11:05 | 27.15682 | -43.13872 | 41001 ft | 490 kts | 55° |
| 2026-05-05 11:06 | 27.19528 | -43.07550 | 41006 ft | 490 kts | 56° |
| 2026-05-05 11:06 | 27.23376 | -43.01215 | 41008 ft | 491 kts | 56° |
| 2026-05-05 11:07 | 27.27223 | -42.94872 | 41009 ft | 491 kts | 56° |
| 2026-05-05 11:07 | 27.31066 | -42.88528 | 41010 ft | 491 kts | 56° |
| 2026-05-05 11:08 | 27.34906 | -42.82179 | 41011 ft | 491 kts | 56° |
| 2026-05-05 11:08 | 27.38741 | -42.75829 | 41008 ft | 490 kts | 56° |
| 2026-05-05 11:09 | 27.42570 | -42.69479 | 41010 ft | 490 kts | 56° |
| 2026-05-05 11:09 | 27.46393 | -42.63132 | 41010 ft | 490 kts | 56° |
| 2026-05-05 11:10 | 27.50212 | -42.56781 | 41006 ft | 489 kts | 56° |
| 2026-05-05 11:10 | 27.54024 | -42.50432 | 41005 ft | 489 kts | 56° |
| 2026-05-05 11:11 | 27.57830 | -42.44084 | 41003 ft | 488 kts | 56° |
| 2026-05-05 11:11 | 27.61628 | -42.37741 | 41001 ft | 488 kts | 56° |
| 2026-05-05 11:12 | 27.65421 | -42.31396 | 41001 ft | 488 kts | 56° |
| 2026-05-05 11:12 | 27.69208 | -42.25053 | 40999 ft | 487 kts | 56° |
| 2026-05-05 11:13 | 27.72995 | -42.18700 | 41000 ft | 489 kts | 56° |
| 2026-05-05 11:13 | 27.76788 | -42.12328 | 41001 ft | 490 kts | 56° |
| 2026-05-05 11:14 | 27.80587 | -42.05937 | 41006 ft | 490 kts | 56° |
| 2026-05-05 11:14 | 27.84388 | -41.99531 | 41008 ft | 491 kts | 56° |
| 2026-05-05 11:15 | 27.88188 | -41.93120 | 41010 ft | 491 kts | 56° |
| 2026-05-05 11:15 | 27.91986 | -41.86702 | 41011 ft | 491 kts | 56° |
| 2026-05-05 11:16 | 27.95780 | -41.80281 | 41010 ft | 491 kts | 56° |
| 2026-05-05 11:16 | 27.99570 | -41.73857 | 41012 ft | 491 kts | 56° |
| 2026-05-05 11:17 | 28.03358 | -41.67427 | 41010 ft | 490 kts | 56° |
| 2026-05-05 11:17 | 28.07138 | -41.61000 | 41009 ft | 490 kts | 56° |
| 2026-05-05 11:18 | 28.10911 | -41.54576 | 41008 ft | 490 kts | 56° |
| 2026-05-05 11:18 | 28.14657 | -41.48190 | 41007 ft | 490 kts | 56° |
| 2026-05-05 11:19 | 28.18422 | -41.41760 | 41006 ft | 489 kts | 56° |
| 2026-05-05 11:19 | 28.22182 | -41.35330 | 41006 ft | 489 kts | 56° |
| 2026-05-05 11:20 | 28.25935 | -41.28902 | 41005 ft | 489 kts | 56° |
| 2026-05-05 11:20 | 28.29683 | -41.22472 | 41003 ft | 488 kts | 56° |
| 2026-05-05 11:21 | 28.33425 | -41.16042 | 41001 ft | 488 kts | 56° |
| 2026-05-05 11:21 | 28.37160 | -41.09617 | 41001 ft | 487 kts | 56° |
| 2026-05-05 11:22 | 28.40890 | -41.03189 | 40997 ft | 487 kts | 56° |
| 2026-05-05 11:22 | 28.44624 | -40.96745 | 40999 ft | 489 kts | 56° |
| 2026-05-05 11:23 | 28.48364 | -40.90280 | 41003 ft | 490 kts | 56° |
| 2026-05-05 11:23 | 28.52106 | -40.83803 | 41008 ft | 491 kts | 57° |
| 2026-05-05 11:24 | 28.55220 | -40.78404 | 41010 ft | 491 kts | 57° |
| 2026-05-05 11:24 | 28.58988 | -40.71865 | 41011 ft | 491 kts | 57° |
| 2026-05-05 11:25 | 28.62729 | -40.65360 | 41015 ft | 491 kts | 57° |
| 2026-05-05 11:25 | 28.66441 | -40.58896 | 41011 ft | 491 kts | 57° |
| 2026-05-05 11:26 | 28.70172 | -40.52390 | 41011 ft | 491 kts | 57° |
| 2026-05-05 11:26 | 28.73900 | -40.45877 | 41010 ft | 491 kts | 57° |
| 2026-05-05 11:27 | 28.77625 | -40.39362 | 41012 ft | 490 kts | 57° |
| 2026-05-05 11:27 | 28.81343 | -40.32846 | 41009 ft | 490 kts | 57° |
| 2026-05-05 11:28 | 28.85056 | -40.26330 | 41007 ft | 490 kts | 57° |
| 2026-05-05 11:28 | 28.88762 | -40.19818 | 41005 ft | 489 kts | 57° |
| 2026-05-05 11:29 | 28.92462 | -40.13304 | 41003 ft | 489 kts | 57° |
| 2026-05-05 11:29 | 28.96156 | -40.06791 | 41002 ft | 488 kts | 57° |
| 2026-05-05 11:30 | 28.99848 | -40.00286 | 41002 ft | 488 kts | 54° |
| 2026-05-05 11:30 | 29.03987 | -39.94135 | 41001 ft | 490 kts | 52° |
| 2026-05-05 11:31 | 29.08165 | -39.87974 | 41006 ft | 491 kts | 52° |
| 2026-05-05 11:31 | 29.12349 | -39.81797 | 41010 ft | 492 kts | 52° |
| 2026-05-05 11:32 | 29.16534 | -39.75611 | 41014 ft | 492 kts | 52° |
| 2026-05-05 11:32 | 29.20714 | -39.69420 | 41011 ft | 491 kts | 52° |
| 2026-05-05 11:33 | 29.24888 | -39.63231 | 41010 ft | 491 kts | 52° |
| 2026-05-05 11:33 | 29.29058 | -39.57037 | 41008 ft | 491 kts | 52° |
| 2026-05-05 11:34 | 29.33224 | -39.50841 | 41008 ft | 491 kts | 52° |
| 2026-05-05 11:34 | 29.37381 | -39.44647 | 41006 ft | 490 kts | 52° |
| 2026-05-05 11:35 | 29.41535 | -39.38449 | 41006 ft | 490 kts | 52° |
| 2026-05-05 11:35 | 29.45684 | -39.32251 | 41005 ft | 489 kts | 52° |
| 2026-05-05 11:36 | 29.49824 | -39.26055 | 41004 ft | 489 kts | 52° |
| 2026-05-05 11:36 | 29.53958 | -39.19859 | 41001 ft | 488 kts | 52° |
| 2026-05-05 11:37 | 29.58083 | -39.13668 | 40999 ft | 488 kts | 52° |
| 2026-05-05 11:37 | 29.62204 | -39.07473 | 40998 ft | 488 kts | 52° |
| 2026-05-05 11:38 | 29.66330 | -39.01261 | 41000 ft | 490 kts | 52° |
| 2026-05-05 11:38 | 29.70466 | -38.95025 | 41004 ft | 491 kts | 52° |
| 2026-05-05 11:39 | 29.74610 | -38.88767 | 41009 ft | 492 kts | 52° |
| 2026-05-05 11:39 | 29.78752 | -38.82502 | 41010 ft | 492 kts | 52° |
| 2026-05-05 11:40 | 29.82889 | -38.76236 | 41010 ft | 491 kts | 52° |
| 2026-05-05 11:40 | 29.87019 | -38.69971 | 41010 ft | 491 kts | 52° |
| 2026-05-05 11:41 | 29.91146 | -38.63700 | 41011 ft | 491 kts | 52° |
| 2026-05-05 11:41 | 29.95267 | -38.57428 | 41009 ft | 490 kts | 53° |
| 2026-05-05 11:42 | 29.99410 | -38.51113 | 41009 ft | 490 kts | 53° |
| 2026-05-05 11:42 | 30.03520 | -38.44840 | 41008 ft | 490 kts | 53° |
| 2026-05-05 11:43 | 30.07622 | -38.38567 | 41004 ft | 489 kts | 53° |
| 2026-05-05 11:43 | 30.11716 | -38.32299 | 41002 ft | 489 kts | 53° |
| 2026-05-05 11:44 | 30.15804 | -38.26028 | 41001 ft | 488 kts | 53° |
| 2026-05-05 11:44 | 30.19886 | -38.19757 | 40999 ft | 488 kts | 53° |
| 2026-05-05 11:45 | 30.23969 | -38.13477 | 41000 ft | 489 kts | 53° |
| 2026-05-05 11:45 | 30.28058 | -38.07175 | 41003 ft | 490 kts | 53° |
| 2026-05-05 11:46 | 30.32148 | -38.00863 | 41005 ft | 491 kts | 53° |
| 2026-05-05 11:46 | 30.36243 | -37.94533 | 41008 ft | 491 kts | 53° |
| 2026-05-05 11:47 | 30.40338 | -37.88193 | 41011 ft | 492 kts | 53° |
| 2026-05-05 11:47 | 30.44406 | -37.81885 | 41010 ft | 492 kts | 53° |
| 2026-05-05 11:48 | 30.50537 | -37.72358 | 41011 ft | 491 kts | 53° |
| 2026-05-05 11:48 | 30.54618 | -37.66005 | 41009 ft | 491 kts | 53° |
| 2026-05-05 11:49 | 30.58691 | -37.59654 | 41010 ft | 491 kts | 53° |
| 2026-05-05 11:49 | 30.62759 | -37.53300 | 41006 ft | 490 kts | 53° |
| 2026-05-05 11:50 | 30.66821 | -37.46946 | 41005 ft | 490 kts | 53° |
| 2026-05-05 11:50 | 30.70876 | -37.40593 | 41002 ft | 489 kts | 53° |
| 2026-05-05 11:51 | 30.74920 | -37.34246 | 41003 ft | 489 kts | 53° |
| 2026-05-05 11:51 | 30.78960 | -37.27896 | 40999 ft | 488 kts | 53° |
| 2026-05-05 11:52 | 30.82992 | -37.21548 | 40996 ft | 488 kts | 53° |
| 2026-05-05 11:52 | 30.87018 | -37.15199 | 40996 ft | 488 kts | 53° |
| 2026-05-05 11:53 | 30.91048 | -37.08837 | 40981 ft | 489 kts | 52° |
| 2026-05-05 11:53 | 30.95083 | -37.02463 | 41002 ft | 490 kts | 54° |
| 2026-05-05 11:54 | 30.99117 | -36.96044 | 41009 ft | 491 kts | 53° |
| 2026-05-05 11:54 | 31.03177 | -36.89627 | 41008 ft | 492 kts | 54° |
| 2026-05-05 11:55 | 31.07210 | -36.83193 | 41010 ft | 491 kts | 53° |
| 2026-05-05 11:55 | 31.11254 | -36.76768 | 41011 ft | 491 kts | 53° |
| 2026-05-05 11:56 | 31.15282 | -36.70334 | 41011 ft | 490 kts | 53° |
| 2026-05-05 11:56 | 31.19308 | -36.63907 | 41006 ft | 490 kts | 53° |
| 2026-05-05 11:57 | 31.23320 | -36.57483 | 41007 ft | 489 kts | 53° |
| 2026-05-05 11:57 | 31.27329 | -36.51059 | 41003 ft | 489 kts | 54° |
| 2026-05-05 11:58 | 31.31329 | -36.44637 | 41001 ft | 488 kts | 54° |
| 2026-05-05 11:58 | 31.35295 | -36.38259 | 41001 ft | 488 kts | 54° |
| 2026-05-05 11:59 | 31.39316 | -36.31781 | 41001 ft | 489 kts | 54° |
| 2026-05-05 11:59 | 31.43292 | -36.25367 | 41005 ft | 490 kts | 54° |
| 2026-05-05 12:00 | 31.47296 | -36.18894 | 41006 ft | 491 kts | 54° |
| 2026-05-05 12:00 | 31.51305 | -36.12405 | 41010 ft | 491 kts | 54° |
| 2026-05-05 12:01 | 31.55310 | -36.05910 | 41011 ft | 492 kts | 54° |
| 2026-05-05 12:01 | 31.59311 | -35.99412 | 41011 ft | 491 kts | 54° |
| 2026-05-05 12:02 | 31.63308 | -35.92907 | 41012 ft | 491 kts | 54° |
| 2026-05-05 12:02 | 31.67301 | -35.86400 | 41012 ft | 491 kts | 54° |
| 2026-05-05 12:03 | 31.71285 | -35.79895 | 41011 ft | 491 kts | 54° |
| 2026-05-05 12:03 | 31.75267 | -35.73385 | 41009 ft | 490 kts | 54° |
| 2026-05-05 12:04 | 31.79242 | -35.66873 | 41007 ft | 490 kts | 54° |
| 2026-05-05 12:04 | 31.83210 | -35.60362 | 41008 ft | 490 kts | 54° |
| 2026-05-05 12:05 | 31.87170 | -35.53853 | 41006 ft | 489 kts | 54° |
| 2026-05-05 12:05 | 31.90486 | -35.48394 | 41003 ft | 489 kts | 54° |
| 2026-05-05 12:06 | 31.94434 | -35.41884 | 41002 ft | 489 kts | 54° |
| 2026-05-05 12:06 | 31.98379 | -35.35369 | 41002 ft | 488 kts | 54° |
| 2026-05-05 12:07 | 32.02317 | -35.28854 | 40999 ft | 488 kts | 54° |
| 2026-05-05 12:07 | 32.06249 | -35.22337 | 40997 ft | 488 kts | 54° |
| 2026-05-05 12:08 | 32.10177 | -35.15816 | 40998 ft | 488 kts | 54° |
| 2026-05-05 12:08 | 32.14105 | -35.09284 | 40998 ft | 488 kts | 54° |
| 2026-05-05 12:09 | 32.18030 | -35.02746 | 40997 ft | 488 kts | 54° |
| 2026-05-05 12:09 | 32.21951 | -34.96203 | 40999 ft | 488 kts | 54° |
| 2026-05-05 12:10 | 32.25867 | -34.89658 | 40998 ft | 488 kts | 54° |
| 2026-05-05 12:10 | 32.29781 | -34.83105 | 41000 ft | 488 kts | 54° |
| 2026-05-05 12:11 | 32.33690 | -34.76547 | 40997 ft | 488 kts | 54° |
| 2026-05-05 12:11 | 32.37607 | -34.69966 | 41001 ft | 490 kts | 54° |
| 2026-05-05 12:12 | 32.41534 | -34.63356 | 41007 ft | 492 kts | 54° |
| 2026-05-05 12:12 | 32.45462 | -34.56733 | 41010 ft | 492 kts | 54° |
| 2026-05-05 12:13 | 32.49389 | -34.50100 | 41009 ft | 492 kts | 55° |
| 2026-05-05 12:13 | 32.53309 | -34.43467 | 41008 ft | 491 kts | 55° |
| 2026-05-05 12:14 | 32.57221 | -34.36836 | 41008 ft | 491 kts | 55° |
| 2026-05-05 12:14 | 32.61131 | -34.30197 | 41010 ft | 490 kts | 55° |
| 2026-05-05 12:15 | 32.65030 | -34.23564 | 41007 ft | 490 kts | 55° |
| 2026-05-05 12:15 | 32.68925 | -34.16927 | 41005 ft | 490 kts | 55° |
| 2026-05-05 12:16 | 32.72814 | -34.10290 | 41002 ft | 489 kts | 55° |
| 2026-05-05 12:16 | 32.76695 | -34.03652 | 41002 ft | 489 kts | 55° |
| 2026-05-05 12:17 | 32.80566 | -33.97020 | 41000 ft | 488 kts | 55° |
| 2026-05-05 12:17 | 32.84433 | -33.90385 | 40999 ft | 488 kts | 55° |
| 2026-05-05 12:18 | 32.88304 | -33.83729 | 41001 ft | 490 kts | 55° |
| 2026-05-05 12:18 | 32.92179 | -33.77056 | 41004 ft | 491 kts | 55° |
| 2026-05-05 12:19 | 32.96059 | -33.70362 | 41007 ft | 491 kts | 55° |
| 2026-05-05 12:19 | 32.99939 | -33.63655 | 41010 ft | 492 kts | 55° |
| 2026-05-05 12:20 | 33.03815 | -33.56942 | 41012 ft | 492 kts | 55° |
| 2026-05-05 12:20 | 33.07688 | -33.50225 | 41012 ft | 491 kts | 55° |
| 2026-05-05 12:21 | 33.11556 | -33.43503 | 41011 ft | 491 kts | 55° |
| 2026-05-05 12:21 | 33.15418 | -33.36778 | 41012 ft | 491 kts | 55° |
| 2026-05-05 12:22 | 33.19275 | -33.30051 | 41009 ft | 491 kts | 55° |
| 2026-05-05 12:22 | 33.23126 | -33.23322 | 41010 ft | 490 kts | 56° |
| 2026-05-05 12:23 | 33.26969 | -33.16595 | 41009 ft | 490 kts | 56° |
| 2026-05-05 12:23 | 33.30807 | -33.09863 | 41006 ft | 490 kts | 56° |
| 2026-05-05 12:24 | 33.34639 | -33.03131 | 41005 ft | 489 kts | 56° |
| 2026-05-05 12:24 | 33.38463 | -32.96400 | 41003 ft | 489 kts | 56° |
| 2026-05-05 12:25 | 33.42278 | -32.89673 | 41000 ft | 488 kts | 56° |
| 2026-05-05 12:25 | 33.46095 | -32.82930 | 41002 ft | 490 kts | 56° |
| 2026-05-05 12:26 | 33.49918 | -32.76163 | 41006 ft | 491 kts | 56° |
| 2026-05-05 12:26 | 33.53744 | -32.69379 | 41008 ft | 492 kts | 56° |
| 2026-05-05 12:27 | 33.57569 | -32.62584 | 41011 ft | 492 kts | 56° |
| 2026-05-05 12:27 | 33.61396 | -32.55774 | 41010 ft | 492 kts | 56° |
| 2026-05-05 12:28 | 33.65218 | -32.48958 | 41011 ft | 492 kts | 56° |
| 2026-05-05 12:28 | 33.69035 | -32.42140 | 41009 ft | 492 kts | 56° |
| 2026-05-05 12:29 | 33.72844 | -32.35323 | 41010 ft | 492 kts | 56° |
| 2026-05-05 12:29 | 33.76649 | -32.28500 | 41010 ft | 491 kts | 56° |
| 2026-05-05 12:30 | 33.80448 | -32.21675 | 41008 ft | 491 kts | 56° |
| 2026-05-05 12:30 | 33.84241 | -32.14848 | 41008 ft | 491 kts | 56° |
| 2026-05-05 12:31 | 33.88026 | -32.08023 | 41006 ft | 490 kts | 56° |
| 2026-05-05 12:31 | 33.91806 | -32.01194 | 41005 ft | 490 kts | 56° |
| 2026-05-05 12:32 | 33.95579 | -31.94364 | 41003 ft | 489 kts | 56° |
| 2026-05-05 12:32 | 33.99321 | -31.87579 | 41001 ft | 489 kts | 56° |
| 2026-05-05 12:33 | 34.03078 | -31.80752 | 41000 ft | 489 kts | 56° |
| 2026-05-05 12:33 | 34.06831 | -31.73921 | 40998 ft | 488 kts | 56° |
| 2026-05-05 12:34 | 34.10610 | -31.67028 | 41000 ft | 490 kts | 56° |
| 2026-05-05 12:34 | 34.14346 | -31.60202 | 41005 ft | 491 kts | 56° |
| 2026-05-05 12:35 | 34.18107 | -31.53317 | 41011 ft | 492 kts | 56° |
| 2026-05-05 12:35 | 34.21868 | -31.46418 | 41009 ft | 492 kts | 56° |
| 2026-05-05 12:36 | 34.25629 | -31.39507 | 41010 ft | 492 kts | 56° |
| 2026-05-05 12:36 | 34.29387 | -31.32587 | 41012 ft | 492 kts | 57° |
| 2026-05-05 12:37 | 34.33139 | -31.25666 | 41010 ft | 492 kts | 57° |
| 2026-05-05 12:37 | 34.36888 | -31.18735 | 41010 ft | 492 kts | 57° |
| 2026-05-05 12:38 | 34.40632 | -31.11801 | 41010 ft | 492 kts | 57° |
| 2026-05-05 12:38 | 34.44369 | -31.04866 | 41010 ft | 492 kts | 57° |
| 2026-05-05 12:39 | 34.48105 | -30.97921 | 41010 ft | 491 kts | 57° |
| 2026-05-05 12:39 | 34.51830 | -30.90981 | 41008 ft | 491 kts | 57° |
| 2026-05-05 12:40 | 34.55552 | -30.84034 | 41007 ft | 491 kts | 57° |
| 2026-05-05 12:40 | 34.59269 | -30.77084 | 41006 ft | 491 kts | 57° |
| 2026-05-05 12:41 | 34.62979 | -30.70132 | 41006 ft | 490 kts | 57° |
| 2026-05-05 12:41 | 34.66680 | -30.63182 | 41004 ft | 490 kts | 57° |
| 2026-05-05 12:42 | 34.70377 | -30.56229 | 41004 ft | 490 kts | 57° |
| 2026-05-05 12:42 | 34.74066 | -30.49275 | 41002 ft | 489 kts | 57° |
| 2026-05-05 12:43 | 34.77772 | -30.42276 | 40999 ft | 489 kts | 57° |
| 2026-05-05 12:43 | 34.81445 | -30.35325 | 41000 ft | 489 kts | 57° |
| 2026-05-05 12:44 | 34.85103 | -30.28391 | 41002 ft | 491 kts | 57° |
| 2026-05-05 12:44 | 34.88789 | -30.21387 | 41004 ft | 491 kts | 57° |
| 2026-05-05 12:45 | 34.92477 | -30.14367 | 41009 ft | 492 kts | 57° |
| 2026-05-05 12:45 | 34.96165 | -30.07334 | 41012 ft | 492 kts | 57° |
| 2026-05-05 12:46 | 34.99225 | -30.01486 | 41013 ft | 492 kts | 57° |
| 2026-05-05 12:46 | 35.03094 | -29.94611 | 41000 ft | 491 kts | 56° |
| 2026-05-05 12:47 | 35.06942 | -29.87728 | 41001 ft | 490 kts | 55° |
| 2026-05-05 12:47 | 35.10838 | -29.80897 | 40999 ft | 490 kts | 55° |
| 2026-05-05 12:48 | 35.14689 | -29.74043 | 40995 ft | 489 kts | 55° |
| 2026-05-05 12:48 | 35.18553 | -29.67202 | 40996 ft | 489 kts | 55° |
| 2026-05-05 12:49 | 35.22401 | -29.60350 | 40995 ft | 489 kts | 55° |
| 2026-05-05 12:49 | 35.26257 | -29.53483 | 40995 ft | 490 kts | 55° |
| 2026-05-05 12:50 | 35.30116 | -29.46593 | 40997 ft | 491 kts | 55° |
| 2026-05-05 12:50 | 35.33975 | -29.39691 | 41001 ft | 492 kts | 55° |
| 2026-05-05 12:51 | 35.37834 | -29.32773 | 41003 ft | 492 kts | 56° |
| 2026-05-05 12:51 | 35.41692 | -29.25845 | 41004 ft | 492 kts | 56° |
| 2026-05-05 12:52 | 35.45547 | -29.18908 | 41006 ft | 492 kts | 56° |
| 2026-05-05 12:52 | 35.49396 | -29.11967 | 41005 ft | 492 kts | 56° |
| 2026-05-05 12:53 | 35.53243 | -29.05018 | 41006 ft | 492 kts | 56° |
| 2026-05-05 12:53 | 35.57084 | -28.98064 | 41006 ft | 492 kts | 56° |
| 2026-05-05 12:54 | 35.62835 | -28.87629 | 41004 ft | 491 kts | 56° |
| 2026-05-05 12:55 | 35.66659 | -28.80672 | 41003 ft | 491 kts | 56° |
| 2026-05-05 12:55 | 35.70478 | -28.73709 | 41002 ft | 491 kts | 56° |
| 2026-05-05 12:56 | 35.74291 | -28.66743 | 41001 ft | 490 kts | 56° |
| 2026-05-05 12:56 | 35.78098 | -28.59776 | 40999 ft | 490 kts | 56° |
| 2026-05-05 12:57 | 35.81894 | -28.52813 | 41000 ft | 490 kts | 56° |
| 2026-05-05 12:57 | 35.85685 | -28.45846 | 40996 ft | 489 kts | 56° |
| 2026-05-05 12:58 | 35.89469 | -28.38879 | 40994 ft | 489 kts | 56° |
| 2026-05-05 12:58 | 35.93247 | -28.31908 | 40996 ft | 489 kts | 56° |
| 2026-05-05 12:59 | 35.97029 | -28.24915 | 40999 ft | 491 kts | 56° |
| 2026-05-05 12:59 | 36.00820 | -28.17892 | 41003 ft | 492 kts | 56° |
| 2026-05-05 13:00 | 36.06513 | -28.07318 | 41007 ft | 493 kts | 56° |
| 2026-05-05 13:01 | 36.14075 | -27.93223 | 41005 ft | 491 kts | 56° |
| 2026-05-05 13:01 | 36.17842 | -27.86179 | 41004 ft | 490 kts | 56° |
| 2026-05-05 13:02 | 36.21600 | -27.79136 | 41002 ft | 490 kts | 56° |
| 2026-05-05 13:02 | 36.25347 | -27.72101 | 41000 ft | 489 kts | 56° |
| 2026-05-05 13:03 | 36.29100 | -27.65078 | 40997 ft | 488 kts | 53° |
| 2026-05-05 13:03 | 36.33481 | -27.58620 | 41002 ft | 491 kts | 49° |
| 2026-05-05 13:04 | 36.37929 | -27.52176 | 41013 ft | 492 kts | 49° |
| 2026-05-05 13:04 | 36.42367 | -27.45707 | 41007 ft | 492 kts | 49° |
| 2026-05-05 13:05 | 36.46806 | -27.39244 | 41012 ft | 492 kts | 49° |
| 2026-05-05 13:05 | 36.51236 | -27.32767 | 41010 ft | 492 kts | 49° |
| 2026-05-05 13:06 | 36.55663 | -27.26291 | 41012 ft | 491 kts | 49° |
| 2026-05-05 13:06 | 36.60081 | -27.19810 | 41011 ft | 491 kts | 50° |
| 2026-05-05 13:07 | 36.64491 | -27.13332 | 41009 ft | 490 kts | 50° |
| 2026-05-05 13:07 | 36.68896 | -27.06846 | 41006 ft | 490 kts | 50° |
| 2026-05-05 13:08 | 36.73295 | -27.00360 | 41007 ft | 490 kts | 50° |
| 2026-05-05 13:08 | 36.77685 | -26.93872 | 41003 ft | 489 kts | 50° |
| 2026-05-05 13:09 | 36.82065 | -26.87386 | 41001 ft | 489 kts | 50° |
| 2026-05-05 13:09 | 36.86442 | -26.80893 | 41001 ft | 489 kts | 50° |
| 2026-05-05 13:10 | 36.90826 | -26.74376 | 41003 ft | 491 kts | 50° |
| 2026-05-05 13:10 | 36.95217 | -26.67836 | 41009 ft | 491 kts | 50° |
| 2026-05-05 13:11 | 36.99609 | -26.61282 | 41010 ft | 492 kts | 50° |
| 2026-05-05 13:11 | 37.04002 | -26.54713 | 41009 ft | 492 kts | 50° |
| 2026-05-05 13:12 | 37.08389 | -26.48139 | 41011 ft | 492 kts | 50° |
| 2026-05-05 13:12 | 37.12771 | -26.41561 | 41009 ft | 491 kts | 50° |
| 2026-05-05 13:13 | 37.17143 | -26.34984 | 41011 ft | 491 kts | 50° |
| 2026-05-05 13:13 | 37.21512 | -26.28400 | 41007 ft | 491 kts | 50° |
| 2026-05-05 13:14 | 37.25874 | -26.21812 | 41007 ft | 490 kts | 50° |
| 2026-05-05 13:14 | 37.30229 | -26.15222 | 41007 ft | 490 kts | 50° |
| 2026-05-05 13:15 | 37.34576 | -26.08630 | 41004 ft | 490 kts | 50° |
| 2026-05-05 13:15 | 37.38925 | -26.02022 | 41003 ft | 490 kts | 50° |
| 2026-05-05 13:16 | 37.43268 | -25.95411 | 41006 ft | 490 kts | 50° |
| 2026-05-05 13:16 | 37.47612 | -25.88785 | 41005 ft | 491 kts | 50° |
| 2026-05-05 13:17 | 37.51953 | -25.82150 | 41006 ft | 491 kts | 50° |
| 2026-05-05 13:17 | 37.56289 | -25.75508 | 41007 ft | 491 kts | 50° |
| 2026-05-05 13:18 | 37.60624 | -25.68855 | 41006 ft | 491 kts | 50° |
| 2026-05-05 13:18 | 37.64956 | -25.62194 | 41006 ft | 491 kts | 50° |
| 2026-05-05 13:19 | 37.69284 | -25.55525 | 41007 ft | 491 kts | 50° |
| 2026-05-05 13:19 | 37.73604 | -25.48854 | 41008 ft | 491 kts | 51° |
| 2026-05-05 13:20 | 37.77955 | -25.42123 | 41007 ft | 498 kts | 51° |
| 2026-05-05 13:20 | 37.82326 | -25.35345 | 41010 ft | 495 kts | 51° |
| 2026-05-05 13:21 | 37.86660 | -25.28612 | 41008 ft | 492 kts | 51° |
| 2026-05-05 13:21 | 37.90961 | -25.21916 | 41006 ft | 489 kts | 51° |
| 2026-05-05 13:22 | 37.95256 | -25.15215 | 41002 ft | 490 kts | 51° |
| 2026-05-05 13:22 | 37.99557 | -25.08492 | 41005 ft | 491 kts | 51° |
| 2026-05-05 13:23 | 38.03861 | -25.01750 | 41008 ft | 492 kts | 51° |
| 2026-05-05 13:23 | 38.08163 | -24.94997 | 41012 ft | 492 kts | 51° |
| 2026-05-05 13:24 | 38.12467 | -24.88227 | 41011 ft | 493 kts | 51° |
| 2026-05-05 13:24 | 38.16767 | -24.81448 | 41011 ft | 492 kts | 51° |
| 2026-05-05 13:25 | 38.21061 | -24.74666 | 41009 ft | 492 kts | 51° |
| 2026-05-05 13:25 | 38.25346 | -24.67883 | 41009 ft | 492 kts | 51° |
| 2026-05-05 13:26 | 38.29628 | -24.61092 | 41010 ft | 492 kts | 51° |
| 2026-05-05 13:26 | 38.33184 | -24.55441 | 41011 ft | 492 kts | 51° |
| 2026-05-05 13:27 | 38.37452 | -24.48644 | 41006 ft | 491 kts | 51° |
| 2026-05-05 13:27 | 38.41715 | -24.41842 | 41007 ft | 491 kts | 51° |
| 2026-05-05 13:28 | 38.45972 | -24.35036 | 41002 ft | 490 kts | 51° |
| 2026-05-05 13:28 | 38.50249 | -24.28181 | 41002 ft | 490 kts | 51° |
| 2026-05-05 13:29 | 38.54489 | -24.21373 | 41002 ft | 490 kts | 51° |
| 2026-05-05 13:29 | 38.58724 | -24.14559 | 41001 ft | 489 kts | 51° |
| 2026-05-05 13:30 | 38.62952 | -24.07741 | 40998 ft | 489 kts | 51° |
| 2026-05-05 13:30 | 38.67146 | -24.00964 | 40999 ft | 490 kts | 51° |
| 2026-05-05 13:31 | 38.71408 | -23.94062 | 41003 ft | 491 kts | 51° |
| 2026-05-05 13:31 | 38.75646 | -23.87184 | 41004 ft | 492 kts | 51° |
| 2026-05-05 13:32 | 38.79886 | -23.80289 | 41010 ft | 493 kts | 51° |
| 2026-05-05 13:32 | 38.84121 | -23.73385 | 41013 ft | 493 kts | 52° |
| 2026-05-05 13:33 | 38.88354 | -23.66471 | 41010 ft | 493 kts | 52° |
| 2026-05-05 13:33 | 38.92583 | -23.59549 | 41009 ft | 492 kts | 52° |
| 2026-05-05 13:34 | 38.96807 | -23.52621 | 41011 ft | 492 kts | 52° |
| 2026-05-05 13:34 | 39.01026 | -23.45684 | 41013 ft | 492 kts | 52° |
| 2026-05-05 13:35 | 39.05239 | -23.38744 | 41011 ft | 492 kts | 52° |
| 2026-05-05 13:35 | 39.09449 | -23.31793 | 41012 ft | 492 kts | 52° |
| 2026-05-05 13:36 | 39.13654 | -23.24835 | 41010 ft | 492 kts | 52° |
| 2026-05-05 13:36 | 39.17853 | -23.17871 | 41011 ft | 492 kts | 52° |
| 2026-05-05 13:37 | 39.22046 | -23.10903 | 41009 ft | 492 kts | 52° |
| 2026-05-05 13:37 | 39.26235 | -23.03925 | 41009 ft | 492 kts | 52° |
| 2026-05-05 13:38 | 39.30420 | -22.96939 | 41008 ft | 492 kts | 52° |
| 2026-05-05 13:38 | 39.34600 | -22.89946 | 41011 ft | 492 kts | 52° |
| 2026-05-05 13:39 | 39.38773 | -22.82950 | 41009 ft | 492 kts | 52° |
| 2026-05-05 13:39 | 39.42943 | -22.75944 | 41007 ft | 491 kts | 52° |
| 2026-05-05 13:40 | 39.47107 | -22.68932 | 41007 ft | 491 kts | 52° |
| 2026-05-05 13:40 | 39.51266 | -22.61913 | 41007 ft | 491 kts | 52° |
| 2026-05-05 13:41 | 39.55420 | -22.54886 | 41007 ft | 491 kts | 52° |
| 2026-05-05 13:41 | 39.59566 | -22.47858 | 41006 ft | 491 kts | 52° |
| 2026-05-05 13:42 | 39.63709 | -22.40820 | 41004 ft | 491 kts | 52° |
| 2026-05-05 13:42 | 39.67873 | -22.33729 | 41005 ft | 490 kts | 52° |
| 2026-05-05 13:43 | 39.71975 | -22.26728 | 41006 ft | 490 kts | 52° |
| 2026-05-05 13:43 | 39.76124 | -22.19631 | 41005 ft | 490 kts | 52° |
| 2026-05-05 13:44 | 39.80243 | -22.12572 | 41004 ft | 490 kts | 53° |
| 2026-05-05 13:44 | 39.84328 | -22.05554 | 41002 ft | 490 kts | 53° |
| 2026-05-05 13:45 | 39.88435 | -21.98482 | 41001 ft | 489 kts | 53° |
| 2026-05-05 13:45 | 39.92533 | -21.91409 | 40999 ft | 489 kts | 53° |
| 2026-05-05 13:46 | 39.96655 | -21.84279 | 41000 ft | 489 kts | 53° |
| 2026-05-05 13:46 | 40.00745 | -21.77190 | 41000 ft | 489 kts | 53° |
| 2026-05-05 13:47 | 40.04837 | -21.70080 | 41004 ft | 491 kts | 53° |
| 2026-05-05 13:47 | 40.08936 | -21.62941 | 41007 ft | 492 kts | 53° |
| 2026-05-05 13:48 | 40.13043 | -21.55774 | 41011 ft | 493 kts | 53° |
| 2026-05-05 13:48 | 40.17147 | -21.48595 | 41009 ft | 493 kts | 53° |
| 2026-05-05 13:49 | 40.21242 | -21.41414 | 41008 ft | 492 kts | 53° |
| 2026-05-05 13:49 | 40.25328 | -21.34233 | 41007 ft | 492 kts | 53° |
| 2026-05-05 13:50 | 40.29404 | -21.27054 | 41005 ft | 491 kts | 53° |
| 2026-05-05 13:50 | 40.33473 | -21.19870 | 41004 ft | 491 kts | 53° |
| 2026-05-05 13:51 | 40.37535 | -21.12683 | 41003 ft | 490 kts | 53° |
| 2026-05-05 13:51 | 40.41588 | -21.05494 | 41001 ft | 490 kts | 53° |
| 2026-05-05 13:52 | 40.45631 | -20.98306 | 41000 ft | 489 kts | 53° |
| 2026-05-05 13:52 | 40.49641 | -20.91160 | 41000 ft | 489 kts | 53° |
| 2026-05-05 13:53 | 40.53702 | -20.83909 | 40998 ft | 490 kts | 53° |
| 2026-05-05 13:53 | 40.57714 | -20.76727 | 41005 ft | 491 kts | 53° |
| 2026-05-05 13:54 | 40.61753 | -20.69480 | 41003 ft | 492 kts | 53° |
| 2026-05-05 13:54 | 40.65794 | -20.62212 | 41006 ft | 492 kts | 53° |
| 2026-05-05 13:55 | 40.69835 | -20.54928 | 41009 ft | 493 kts | 53° |
| 2026-05-05 13:55 | 40.73874 | -20.47630 | 41010 ft | 493 kts | 54° |
| 2026-05-05 13:56 | 40.77907 | -20.40326 | 41011 ft | 493 kts | 54° |
| 2026-05-05 13:56 | 40.81964 | -20.32961 | 41011 ft | 493 kts | 54° |
| 2026-05-05 13:57 | 40.85960 | -20.25688 | 41012 ft | 492 kts | 54° |
| 2026-05-05 13:57 | 40.89978 | -20.18360 | 41010 ft | 492 kts | 54° |
| 2026-05-05 13:58 | 40.93987 | -20.11031 | 41009 ft | 492 kts | 54° |
| 2026-05-05 13:58 | 40.97991 | -20.03692 | 41010 ft | 492 kts | 54° |
| 2026-05-05 13:59 | 41.04756 | -19.93543 | 41003 ft | 491 kts | 45° |
| 2026-05-05 14:00 | 41.11099 | -19.84929 | 41007 ft | 490 kts | 46° |
| 2026-05-05 14:00 | 41.16659 | -19.77351 | 41008 ft | 490 kts | 45° |
| 2026-05-05 14:01 | 41.21407 | -19.70860 | 41008 ft | 490 kts | 46° |
| 2026-05-05 14:01 | 41.26151 | -19.64363 | 41008 ft | 490 kts | 46° |
| 2026-05-05 14:02 | 41.30887 | -19.57862 | 41007 ft | 489 kts | 46° |
| 2026-05-05 14:02 | 41.35653 | -19.51304 | 41005 ft | 489 kts | 46° |
| 2026-05-05 14:03 | 41.39578 | -19.45893 | 41006 ft | 489 kts | 46° |
| 2026-05-05 14:03 | 41.44299 | -19.39371 | 41004 ft | 489 kts | 46° |
| 2026-05-05 14:04 | 41.49791 | -19.31766 | 41006 ft | 490 kts | 46° |
| 2026-05-05 14:04 | 41.54522 | -19.25199 | 41011 ft | 491 kts | 46° |
| 2026-05-05 14:05 | 41.58490 | -19.19680 | 41013 ft | 492 kts | 46° |
| 2026-05-05 14:05 | 41.63229 | -19.13074 | 41012 ft | 492 kts | 46° |
| 2026-05-05 14:06 | 41.67967 | -19.06454 | 41011 ft | 493 kts | 46° |
| 2026-05-05 14:06 | 41.72701 | -18.99825 | 41009 ft | 492 kts | 46° |
| 2026-05-05 14:07 | 41.77427 | -18.93192 | 41010 ft | 492 kts | 46° |
| 2026-05-05 14:07 | 41.82150 | -18.86549 | 41009 ft | 492 kts | 46° |
| 2026-05-05 14:08 | 41.86866 | -18.79899 | 41009 ft | 492 kts | 46° |
| 2026-05-05 14:08 | 41.91576 | -18.73244 | 41007 ft | 491 kts | 46° |
| 2026-05-05 14:09 | 41.96280 | -18.66582 | 41007 ft | 491 kts | 46° |
| 2026-05-05 14:09 | 42.00974 | -18.59918 | 41008 ft | 491 kts | 46° |
| 2026-05-05 14:10 | 42.05665 | -18.53243 | 41005 ft | 491 kts | 46° |
| 2026-05-05 14:10 | 42.10348 | -18.46564 | 41003 ft | 490 kts | 46° |
| 2026-05-05 14:11 | 42.15024 | -18.39880 | 41001 ft | 490 kts | 46° |
| 2026-05-05 14:11 | 42.19690 | -18.33195 | 41005 ft | 490 kts | 46° |
| 2026-05-05 14:12 | 42.24352 | -18.26500 | 41000 ft | 489 kts | 46° |
| 2026-05-05 14:12 | 42.29009 | -18.19796 | 40999 ft | 490 kts | 46° |
| 2026-05-05 14:13 | 42.33676 | -18.13063 | 41005 ft | 491 kts | 47° |
| 2026-05-05 14:13 | 42.38347 | -18.06309 | 41009 ft | 492 kts | 47° |
| 2026-05-05 14:14 | 42.43023 | -17.99531 | 41010 ft | 493 kts | 47° |
| 2026-05-05 14:14 | 42.47700 | -17.92735 | 41008 ft | 493 kts | 47° |
| 2026-05-05 14:15 | 42.52373 | -17.85930 | 41012 ft | 493 kts | 47° |
| 2026-05-05 14:15 | 42.57039 | -17.79119 | 41010 ft | 493 kts | 47° |
| 2026-05-05 14:16 | 42.61695 | -17.72305 | 41008 ft | 492 kts | 47° |
| 2026-05-05 14:16 | 42.66348 | -17.65482 | 41009 ft | 492 kts | 47° |
| 2026-05-05 14:17 | 42.70993 | -17.58653 | 41009 ft | 492 kts | 47° |
| 2026-05-05 14:17 | 42.75662 | -17.51772 | 41007 ft | 491 kts | 47° |
| 2026-05-05 14:18 | 42.80291 | -17.44934 | 41005 ft | 491 kts | 47° |
| 2026-05-05 14:18 | 42.84916 | -17.38085 | 41003 ft | 491 kts | 47° |
| 2026-05-05 14:19 | 42.89534 | -17.31232 | 41002 ft | 491 kts | 47° |
| 2026-05-05 14:19 | 42.94144 | -17.24373 | 41001 ft | 490 kts | 47° |
| 2026-05-05 14:20 | 42.98745 | -17.17511 | 41000 ft | 490 kts | 47° |
| 2026-05-05 14:20 | 43.03342 | -17.10641 | 40999 ft | 490 kts | 47° |
| 2026-05-05 14:21 | 43.07931 | -17.03763 | 41000 ft | 489 kts | 47° |
| 2026-05-05 14:21 | 43.12517 | -16.96875 | 40998 ft | 490 kts | 47° |
| 2026-05-05 14:22 | 43.17111 | -16.89958 | 41001 ft | 492 kts | 47° |
| 2026-05-05 14:22 | 43.21718 | -16.83004 | 41009 ft | 493 kts | 47° |
| 2026-05-05 14:23 | 43.26327 | -16.76031 | 41009 ft | 493 kts | 47° |
| 2026-05-05 14:23 | 43.30931 | -16.69048 | 41008 ft | 493 kts | 47° |
| 2026-05-05 14:24 | 43.35526 | -16.62062 | 41012 ft | 493 kts | 47° |
| 2026-05-05 14:24 | 43.40120 | -16.55061 | 41009 ft | 493 kts | 48° |
| 2026-05-05 14:25 | 43.44703 | -16.48059 | 41009 ft | 492 kts | 48° |
| 2026-05-05 14:25 | 43.49281 | -16.41047 | 41009 ft | 492 kts | 48° |
| 2026-05-05 14:26 | 43.53852 | -16.34029 | 41007 ft | 492 kts | 48° |
| 2026-05-05 14:26 | 43.58416 | -16.27005 | 41005 ft | 491 kts | 48° |
| 2026-05-05 14:27 | 43.62972 | -16.19975 | 41007 ft | 491 kts | 48° |
| 2026-05-05 14:27 | 43.67521 | -16.12939 | 41004 ft | 491 kts | 48° |
| 2026-05-05 14:28 | 43.72063 | -16.05898 | 41002 ft | 490 kts | 48° |
| 2026-05-05 14:28 | 43.76594 | -15.98855 | 41000 ft | 490 kts | 48° |
| 2026-05-05 14:29 | 43.81120 | -15.91801 | 41000 ft | 490 kts | 48° |
| 2026-05-05 14:29 | 43.85642 | -15.84739 | 40998 ft | 489 kts | 48° |
| 2026-05-05 14:30 | 43.90156 | -15.77669 | 41000 ft | 490 kts | 48° |
| 2026-05-05 14:30 | 43.94680 | -15.70568 | 41002 ft | 492 kts | 48° |
| 2026-05-05 14:31 | 43.99211 | -15.63437 | 41007 ft | 493 kts | 48° |
| 2026-05-05 14:31 | 44.03746 | -15.56282 | 41009 ft | 493 kts | 49° |
| 2026-05-05 14:32 | 44.08274 | -15.49121 | 41011 ft | 493 kts | 49° |
| 2026-05-05 14:32 | 44.12798 | -15.41947 | 41012 ft | 493 kts | 49° |
| 2026-05-05 14:33 | 44.17315 | -15.34766 | 41010 ft | 493 kts | 49° |
| 2026-05-05 14:33 | 44.21827 | -15.27576 | 41011 ft | 493 kts | 49° |
| 2026-05-05 14:34 | 44.26332 | -15.20378 | 41009 ft | 492 kts | 49° |
| 2026-05-05 14:34 | 44.30831 | -15.13171 | 41007 ft | 492 kts | 49° |
| 2026-05-05 14:35 | 44.35321 | -15.05961 | 41007 ft | 492 kts | 49° |
| 2026-05-05 14:35 | 44.39807 | -14.98739 | 41006 ft | 492 kts | 49° |
| 2026-05-05 14:36 | 44.44287 | -14.91507 | 41005 ft | 492 kts | 49° |
| 2026-05-05 14:36 | 44.48761 | -14.84269 | 41007 ft | 491 kts | 49° |
| 2026-05-05 14:37 | 44.53225 | -14.77026 | 41003 ft | 491 kts | 49° |
| 2026-05-05 14:37 | 44.57685 | -14.69772 | 41002 ft | 491 kts | 49° |
| 2026-05-05 14:38 | 44.62138 | -14.62510 | 41005 ft | 491 kts | 49° |
| 2026-05-05 14:38 | 44.66584 | -14.55241 | 41001 ft | 490 kts | 49° |
| 2026-05-05 14:39 | 44.71051 | -14.47920 | 41001 ft | 490 kts | 49° |
| 2026-05-05 14:39 | 44.75483 | -14.40637 | 41000 ft | 490 kts | 49° |
| 2026-05-05 14:40 | 44.79160 | -14.34580 | 40999 ft | 490 kts | 49° |
| 2026-05-05 14:40 | 44.83578 | -14.27284 | 40998 ft | 489 kts | 49° |
| 2026-05-05 14:41 | 44.88000 | -14.19965 | 41000 ft | 491 kts | 49° |
| 2026-05-05 14:41 | 44.92425 | -14.12620 | 41003 ft | 492 kts | 49° |
| 2026-05-05 14:42 | 44.96855 | -14.05249 | 41005 ft | 493 kts | 50° |
| 2026-05-05 14:42 | 45.01340 | -13.97927 | 41013 ft | 492 kts | 47° |
| 2026-05-05 14:43 | 45.05851 | -13.90636 | 41004 ft | 492 kts | 49° |
| 2026-05-05 14:43 | 45.10395 | -13.83393 | 41004 ft | 492 kts | 48° |
| 2026-05-05 14:44 | 45.14912 | -13.76132 | 41001 ft | 491 kts | 49° |
| 2026-05-05 14:44 | 45.19425 | -13.68865 | 41002 ft | 491 kts | 48° |
| 2026-05-05 14:45 | 45.23931 | -13.61598 | 40998 ft | 490 kts | 49° |
| 2026-05-05 14:45 | 45.28425 | -13.54321 | 40996 ft | 490 kts | 49° |
| 2026-05-05 14:46 | 45.32910 | -13.47047 | 40996 ft | 489 kts | 49° |
| 2026-05-05 14:46 | 45.37394 | -13.39751 | 40997 ft | 491 kts | 49° |
| 2026-05-05 14:47 | 45.41889 | -13.32421 | 41001 ft | 492 kts | 49° |
| 2026-05-05 14:47 | 45.46393 | -13.25055 | 41006 ft | 494 kts | 49° |
| 2026-05-05 14:48 | 45.50900 | -13.17666 | 41010 ft | 493 kts | 49° |
| 2026-05-05 14:48 | 45.55421 | -13.10232 | 41008 ft | 492 kts | 49° |
| 2026-05-05 14:49 | 45.59902 | -13.02846 | 41004 ft | 492 kts | 49° |
| 2026-05-05 14:49 | 45.64371 | -12.95460 | 41004 ft | 491 kts | 49° |
| 2026-05-05 14:50 | 45.68828 | -12.88074 | 41000 ft | 490 kts | 49° |
| 2026-05-05 14:50 | 45.73272 | -12.80690 | 40998 ft | 489 kts | 49° |
| 2026-05-05 14:51 | 45.77713 | -12.73292 | 40997 ft | 490 kts | 49° |
| 2026-05-05 14:51 | 45.82163 | -12.65859 | 40999 ft | 492 kts | 49° |
| 2026-05-05 14:52 | 45.86589 | -12.58445 | 41003 ft | 493 kts | 49° |
| 2026-05-05 14:52 | 45.91044 | -12.50963 | 41009 ft | 493 kts | 49° |
| 2026-05-05 14:53 | 45.95497 | -12.43464 | 41009 ft | 493 kts | 49° |
| 2026-05-05 14:53 | 45.99943 | -12.35956 | 41008 ft | 493 kts | 49° |
| 2026-05-05 14:54 | 46.04382 | -12.28439 | 41010 ft | 493 kts | 49° |
| 2026-05-05 14:54 | 46.08816 | -12.20912 | 41010 ft | 493 kts | 50° |
| 2026-05-05 14:55 | 46.13241 | -12.13379 | 41010 ft | 492 kts | 50° |
| 2026-05-05 14:55 | 46.17662 | -12.05833 | 41006 ft | 492 kts | 50° |
| 2026-05-05 14:56 | 46.22076 | -11.98277 | 41005 ft | 492 kts | 50° |
| 2026-05-05 14:56 | 46.26480 | -11.90717 | 41006 ft | 492 kts | 50° |
| 2026-05-05 14:57 | 46.30882 | -11.83140 | 41007 ft | 492 kts | 50° |
| 2026-05-05 14:57 | 46.35272 | -11.75564 | 41006 ft | 491 kts | 50° |
| 2026-05-05 14:58 | 46.39657 | -11.67976 | 41005 ft | 491 kts | 50° |
| 2026-05-05 14:58 | 46.44034 | -11.60380 | 41001 ft | 491 kts | 50° |
| 2026-05-05 14:59 | 46.48400 | -11.52782 | 41001 ft | 490 kts | 50° |
| 2026-05-05 14:59 | 46.52762 | -11.45171 | 41000 ft | 490 kts | 50° |
| 2026-05-05 15:00 | 46.56380 | -11.38841 | 40998 ft | 490 kts | 50° |
| 2026-05-05 15:00 | 46.61459 | -11.29932 | 40999 ft | 489 kts | 50° |
| 2026-05-05 15:01 | 46.65800 | -11.22294 | 40997 ft | 490 kts | 50° |
| 2026-05-05 15:01 | 46.70149 | -11.14620 | 41003 ft | 492 kts | 50° |
| 2026-05-05 15:02 | 46.74536 | -11.06857 | 41006 ft | 493 kts | 50° |
| 2026-05-05 15:02 | 46.78871 | -10.99167 | 41009 ft | 493 kts | 50° |
| 2026-05-05 15:03 | 46.83247 | -10.91380 | 41010 ft | 493 kts | 50° |
| 2026-05-05 15:03 | 46.87592 | -10.83625 | 41010 ft | 493 kts | 50° |
| 2026-05-05 15:04 | 46.91931 | -10.75861 | 41012 ft | 493 kts | 51° |
| 2026-05-05 15:04 | 46.96263 | -10.68088 | 41010 ft | 493 kts | 51° |
| 2026-05-05 15:05 | 47.02744 | -10.56417 | 41009 ft | 492 kts | 51° |
| 2026-05-05 15:06 | 47.07056 | -10.48623 | 41010 ft | 492 kts | 51° |
| 2026-05-05 15:06 | 47.11362 | -10.40819 | 41007 ft | 492 kts | 51° |
| 2026-05-05 15:07 | 47.15660 | -10.33007 | 41008 ft | 491 kts | 51° |
| 2026-05-05 15:07 | 47.19947 | -10.25192 | 41005 ft | 491 kts | 51° |
| 2026-05-05 15:08 | 47.24200 | -10.17417 | 41003 ft | 491 kts | 51° |
| 2026-05-05 15:08 | 47.28502 | -10.09530 | 41004 ft | 490 kts | 51° |
| 2026-05-05 15:09 | 47.32740 | -10.01740 | 41002 ft | 490 kts | 51° |
| 2026-05-05 15:09 | 47.37023 | -9.93841 | 41000 ft | 490 kts | 51° |
| 2026-05-05 15:10 | 47.41225 | -9.86072 | 41002 ft | 492 kts | 51° |
| 2026-05-05 15:10 | 47.45493 | -9.78158 | 41006 ft | 493 kts | 51° |
| 2026-05-05 15:11 | 47.49760 | -9.70221 | 41010 ft | 493 kts | 51° |
| 2026-05-05 15:11 | 47.54026 | -9.62266 | 41011 ft | 494 kts | 51° |
| 2026-05-05 15:12 | 47.58261 | -9.54343 | 41008 ft | 494 kts | 51° |
| 2026-05-05 15:12 | 47.62517 | -9.46358 | 41011 ft | 493 kts | 51° |
| 2026-05-05 15:13 | 47.66794 | -9.38310 | 41010 ft | 493 kts | 51° |
| 2026-05-05 15:13 | 47.71005 | -9.30363 | 41008 ft | 493 kts | 52° |
| 2026-05-05 15:14 | 47.75267 | -9.22297 | 41008 ft | 493 kts | 52° |
| 2026-05-05 15:14 | 47.79465 | -9.14327 | 41007 ft | 493 kts | 52° |
| 2026-05-05 15:15 | 47.83712 | -9.06240 | 41007 ft | 492 kts | 52° |
| 2026-05-05 15:15 | 47.87893 | -8.98257 | 41007 ft | 492 kts | 52° |
| 2026-05-05 15:16 | 47.92097 | -8.90206 | 41004 ft | 492 kts | 52° |
| 2026-05-05 15:16 | 47.96293 | -8.82145 | 41004 ft | 492 kts | 52° |
| 2026-05-05 15:16 | 47.98144 | -8.77873 | 41036 ft | 491 kts | 64° |
| 2026-05-05 15:17 | 47.99383 | -8.73128 | 41031 ft | 492 kts | 76° |
| 2026-05-05 15:17 | 47.99969 | -8.68104 | 41015 ft | 492 kts | 87° |
| 2026-05-05 15:17 | 48.00030 | -8.63005 | 40999 ft | 492 kts | 89° |
| 2026-05-05 15:18 | 48.00056 | -8.52708 | 41010 ft | 492 kts | 90° |
| 2026-05-05 15:18 | 48.00058 | -8.42488 | 41013 ft | 492 kts | 90° |
| 2026-05-05 15:19 | 48.00065 | -8.33999 | 41011 ft | 492 kts | 90° |
| 2026-05-05 15:19 | 48.00052 | -8.23791 | 41007 ft | 491 kts | 90° |
| 2026-05-05 15:20 | 48.00038 | -8.13591 | 41005 ft | 491 kts | 90° |
| 2026-05-05 15:20 | 48.00237 | -8.08509 | 41037 ft | 490 kts | 79° |
| 2026-05-05 15:20 | 48.01103 | -8.03592 | 41038 ft | 491 kts | 68° |
| 2026-05-05 15:20 | 48.02605 | -7.99009 | 41036 ft | 492 kts | 57° |
| 2026-05-05 15:21 | 48.04688 | -7.94960 | 41016 ft | 492 kts | 45° |
| 2026-05-05 15:21 | 48.09924 | -7.88403 | 41000 ft | 491 kts | 38° |
| 2026-05-05 15:22 | 48.15328 | -7.82156 | 41011 ft | 491 kts | 38° |
| 2026-05-05 15:22 | 48.20687 | -7.75840 | 41011 ft | 490 kts | 38° |
| 2026-05-05 15:23 | 48.26069 | -7.69530 | 41007 ft | 492 kts | 38° |
| 2026-05-05 15:23 | 48.31416 | -7.63222 | 41009 ft | 492 kts | 38° |
| 2026-05-05 15:24 | 48.36799 | -7.56862 | 41010 ft | 493 kts | 38° |
| 2026-05-05 15:24 | 48.42188 | -7.50476 | 41009 ft | 493 kts | 38° |
| 2026-05-05 15:25 | 48.47573 | -7.44076 | 41011 ft | 493 kts | 38° |
| 2026-05-05 15:25 | 48.52958 | -7.37660 | 41010 ft | 493 kts | 38° |
| 2026-05-05 15:26 | 48.58340 | -7.31228 | 41012 ft | 493 kts | 38° |
| 2026-05-05 15:26 | 48.63717 | -7.24784 | 41012 ft | 493 kts | 38° |
| 2026-05-05 15:27 | 48.69131 | -7.18278 | 41011 ft | 493 kts | 38° |
| 2026-05-05 15:27 | 48.74463 | -7.11853 | 41009 ft | 493 kts | 38° |
| 2026-05-05 15:28 | 48.79861 | -7.05329 | 41008 ft | 492 kts | 38° |
| 2026-05-05 15:28 | 48.85175 | -6.98890 | 41008 ft | 492 kts | 38° |
| 2026-05-05 15:29 | 48.90515 | -6.92401 | 41004 ft | 491 kts | 38° |
| 2026-05-05 15:29 | 48.95847 | -6.85902 | 41003 ft | 491 kts | 38° |
| 2026-05-05 15:30 | 49.01166 | -6.79401 | 41000 ft | 490 kts | 38° |
| 2026-05-05 15:30 | 49.06515 | -6.72846 | 40999 ft | 490 kts | 39° |
| 2026-05-05 15:31 | 49.11818 | -6.66327 | 40995 ft | 489 kts | 39° |
| 2026-05-05 15:31 | 49.17081 | -6.59841 | 40998 ft | 490 kts | 39° |
| 2026-05-05 15:32 | 49.22386 | -6.53283 | 41000 ft | 491 kts | 39° |
| 2026-05-05 15:32 | 49.27701 | -6.46695 | 41002 ft | 492 kts | 39° |
| 2026-05-05 15:33 | 49.33018 | -6.40085 | 41004 ft | 493 kts | 39° |
| 2026-05-05 15:33 | 49.38340 | -6.33450 | 41008 ft | 493 kts | 39° |
| 2026-05-05 15:34 | 49.43659 | -6.26800 | 41008 ft | 493 kts | 39° |
| 2026-05-05 15:34 | 49.49011 | -6.20088 | 41008 ft | 493 kts | 39° |
| 2026-05-05 15:35 | 49.54006 | -6.12915 | 41010 ft | 492 kts | 54° |
| 2026-05-05 15:35 | 49.58033 | -6.04386 | 41008 ft | 492 kts | 54° |
| 2026-05-05 15:36 | 49.62038 | -5.95828 | 41010 ft | 492 kts | 54° |
| 2026-05-05 15:36 | 49.66044 | -5.87273 | 41010 ft | 492 kts | 54° |
| 2026-05-05 15:37 | 49.70037 | -5.78696 | 41010 ft | 492 kts | 54° |
| 2026-05-05 15:37 | 49.74025 | -5.70116 | 41011 ft | 491 kts | 54° |
| 2026-05-05 15:38 | 49.78001 | -5.61526 | 41012 ft | 491 kts | 54° |
| 2026-05-05 15:38 | 49.81970 | -5.52927 | 41008 ft | 491 kts | 54° |
| 2026-05-05 15:39 | 49.85929 | -5.44319 | 41009 ft | 490 kts | 54° |
| 2026-05-05 15:39 | 49.89880 | -5.35703 | 41009 ft | 490 kts | 54° |
| 2026-05-05 15:40 | 49.93851 | -5.27015 | 41007 ft | 490 kts | 54° |
| 2026-05-05 15:40 | 49.97758 | -5.18438 | 41005 ft | 490 kts | 54° |
| 2026-05-05 15:41 | 50.01694 | -5.09769 | 41009 ft | 491 kts | 54° |
| 2026-05-05 15:41 | 50.05564 | -5.01218 | 41009 ft | 491 kts | 54° |
| 2026-05-05 15:42 | 50.09492 | -4.92510 | 41009 ft | 491 kts | 54° |
| 2026-05-05 15:42 | 50.13406 | -4.83804 | 41011 ft | 490 kts | 55° |
| 2026-05-05 15:43 | 50.17309 | -4.75094 | 41007 ft | 490 kts | 55° |
| 2026-05-05 15:43 | 50.21233 | -4.66310 | 41006 ft | 491 kts | 55° |
| 2026-05-05 15:44 | 50.25133 | -4.57549 | 41012 ft | 492 kts | 55° |
| 2026-05-05 15:44 | 50.29038 | -4.48749 | 41012 ft | 493 kts | 55° |
| 2026-05-05 15:45 | 50.32936 | -4.39933 | 41010 ft | 493 kts | 55° |
| 2026-05-05 15:45 | 50.36832 | -4.31094 | 41013 ft | 493 kts | 55° |
| 2026-05-05 15:46 | 50.40725 | -4.22231 | 41010 ft | 493 kts | 55° |
| 2026-05-05 15:46 | 50.44631 | -4.13307 | 41008 ft | 493 kts | 55° |
| 2026-05-05 15:47 | 50.48503 | -4.04432 | 41006 ft | 493 kts | 55° |
| 2026-05-05 15:47 | 50.51831 | -3.95067 | 41008 ft | 494 kts | 73° |
| 2026-05-05 15:48 | 50.53236 | -3.84562 | 41013 ft | 495 kts | 80° |
| 2026-05-05 15:48 | 50.54402 | -3.73908 | 41010 ft | 494 kts | 80° |
| 2026-05-05 15:49 | 50.55588 | -3.63270 | 41012 ft | 493 kts | 80° |
| 2026-05-05 15:49 | 50.56744 | -3.52661 | 41010 ft | 492 kts | 80° |
| 2026-05-05 15:50 | 50.57911 | -3.42053 | 41011 ft | 491 kts | 79° |
| 2026-05-05 15:50 | 50.58542 | -3.36799 | 40498 ft | 488 kts | 79° |
| 2026-05-05 15:50 | 50.59179 | -3.31538 | 39730 ft | 491 kts | 79° |
| 2026-05-05 15:50 | 50.59789 | -3.26257 | 39045 ft | 490 kts | 80° |
| 2026-05-05 15:51 | 50.60387 | -3.20978 | 38331 ft | 490 kts | 79° |
| 2026-05-05 15:51 | 50.60994 | -3.15706 | 37629 ft | 489 kts | 79° |
| 2026-05-05 15:51 | 50.61605 | -3.10443 | 36907 ft | 488 kts | 79° |
| 2026-05-05 15:51 | 50.62208 | -3.05189 | 36162 ft | 487 kts | 80° |
| 2026-05-05 15:52 | 50.62801 | -2.99944 | 35386 ft | 487 kts | 80° |
| 2026-05-05 15:52 | 50.63393 | -2.94700 | 34593 ft | 486 kts | 80° |
| 2026-05-05 15:52 | 50.63986 | -2.89469 | 33751 ft | 485 kts | 80° |
| 2026-05-05 15:52 | 50.64575 | -2.84231 | 32909 ft | 485 kts | 80° |
| 2026-05-05 15:53 | 50.65159 | -2.79008 | 32014 ft | 484 kts | 80° |
| 2026-05-05 15:53 | 50.65741 | -2.73777 | 31078 ft | 485 kts | 80° |
| 2026-05-05 15:53 | 50.66323 | -2.68529 | 30082 ft | 487 kts | 80° |
| 2026-05-05 15:53 | 50.66905 | -2.63273 | 29102 ft | 487 kts | 80° |
| 2026-05-05 15:54 | 50.67483 | -2.58016 | 28131 ft | 485 kts | 80° |
| 2026-05-05 15:54 | 50.68018 | -2.52783 | 27270 ft | 481 kts | 84° |
| 2026-05-05 15:54 | 50.68027 | -2.47594 | 27007 ft | 464 kts | 93° |
| 2026-05-05 15:54 | 50.67840 | -2.42559 | 27014 ft | 463 kts | 94° |
| 2026-05-05 15:55 | 50.67621 | -2.37429 | 27011 ft | 473 kts | 94° |
| 2026-05-05 15:55 | 50.67388 | -2.32264 | 27015 ft | 473 kts | 94° |
| 2026-05-05 15:55 | 50.67166 | -2.27081 | 27004 ft | 474 kts | 94° |
| 2026-05-05 15:55 | 50.66949 | -2.21899 | 27009 ft | 475 kts | 94° |
| 2026-05-05 15:56 | 50.66723 | -2.16711 | 26999 ft | 475 kts | 94° |
| 2026-05-05 15:56 | 50.66489 | -2.11504 | 26670 ft | 478 kts | 94° |
| 2026-05-05 15:56 | 50.66256 | -2.06301 | 26118 ft | 472 kts | 94° |
| 2026-05-05 15:56 | 50.66113 | -2.02900 | 25774 ft | 467 kts | 92° |
| 2026-05-05 15:57 | 50.66143 | -1.97824 | 25262 ft | 461 kts | 89° |
| 2026-05-05 15:57 | 50.66212 | -1.92789 | 24764 ft | 458 kts | 89° |
| 2026-05-05 15:57 | 50.66277 | -1.87789 | 24262 ft | 455 kts | 89° |
| 2026-05-05 15:57 | 50.66331 | -1.82828 | 23768 ft | 452 kts | 89° |
| 2026-05-05 15:58 | 50.66382 | -1.77891 | 23263 ft | 449 kts | 89° |
| 2026-05-05 15:58 | 50.66436 | -1.72990 | 22785 ft | 446 kts | 89° |
| 2026-05-05 15:58 | 50.66487 | -1.68111 | 22297 ft | 443 kts | 89° |
| 2026-05-05 15:58 | 50.66534 | -1.63278 | 21815 ft | 440 kts | 89° |
| 2026-05-05 15:59 | 50.66590 | -1.58485 | 21334 ft | 436 kts | 87° |
| 2026-05-05 15:59 | 50.67107 | -1.53799 | 20862 ft | 433 kts | 73° |
| 2026-05-05 15:59 | 50.68261 | -1.49442 | 20380 ft | 430 kts | 64° |
| 2026-05-05 15:59 | 50.69561 | -1.45212 | 19921 ft | 427 kts | 64° |
| 2026-05-05 16:00 | 50.70876 | -1.41020 | 19452 ft | 424 kts | 63° |
| 2026-05-05 16:00 | 50.72171 | -1.36857 | 18994 ft | 421 kts | 64° |
| 2026-05-05 16:00 | 50.73443 | -1.32708 | 18529 ft | 418 kts | 64° |
| 2026-05-05 16:00 | 50.74704 | -1.28590 | 18075 ft | 415 kts | 64° |
| 2026-05-05 16:01 | 50.76165 | -1.24688 | 17612 ft | 412 kts | 51° |
| 2026-05-05 16:01 | 50.78218 | -1.21565 | 17177 ft | 409 kts | 36° |
| 2026-05-05 16:01 | 50.80574 | -1.19073 | 16739 ft | 406 kts | 33° |
| 2026-05-05 16:01 | 50.82941 | -1.16655 | 16285 ft | 404 kts | 32° |
| 2026-05-05 16:02 | 50.85301 | -1.14253 | 15848 ft | 402 kts | 33° |
| 2026-05-05 16:02 | 50.87633 | -1.11839 | 15397 ft | 399 kts | 33° |
| 2026-05-05 16:02 | 50.89947 | -1.09428 | 14968 ft | 397 kts | 33° |
| 2026-05-05 16:02 | 50.92253 | -1.07039 | 14532 ft | 395 kts | 33° |
| 2026-05-05 16:03 | 50.94544 | -1.04670 | 14102 ft | 393 kts | 33° |
| 2026-05-05 16:03 | 50.96821 | -1.02307 | 13676 ft | 390 kts | 33° |
| 2026-05-05 16:03 | 50.99058 | -0.99899 | 13244 ft | 387 kts | 37° |
| 2026-05-05 16:03 | 51.01148 | -0.97241 | 13008 ft | 381 kts | 37° |
| 2026-05-05 16:04 | 51.03467 | -0.95261 | 12993 ft | 384 kts | 18° |
| 2026-05-05 16:04 | 51.06087 | -0.94584 | 12759 ft | 376 kts | 2° |
| 2026-05-05 16:04 | 51.08708 | -0.94745 | 11942 ft | 373 kts | 354° |
| 2026-05-05 16:04 | 51.11201 | -0.95239 | 11777 ft | 349 kts | 352° |
| 2026-05-05 16:05 | 51.13460 | -0.95771 | 11611 ft | 308 kts | 351° |
| 2026-05-05 16:05 | 51.15504 | -0.95968 | 11485 ft | 288 kts | 7° |
| 2026-05-05 16:05 | 51.17429 | -0.95211 | 11342 ft | 284 kts | 17° |
| 2026-05-05 16:05 | 51.19294 | -0.94172 | 10979 ft | 278 kts | 20° |
| 2026-05-05 16:06 | 51.21063 | -0.93109 | 10562 ft | 268 kts | 20° |
| 2026-05-05 16:06 | 51.22822 | -0.92034 | 10140 ft | 271 kts | 20° |
| 2026-05-05 16:06 | 51.24577 | -0.90957 | 9712 ft | 269 kts | 20° |
| 2026-05-05 16:06 | 51.26296 | -0.89902 | 9326 ft | 260 kts | 20° |
| 2026-05-05 16:07 | 51.27975 | -0.88869 | 8868 ft | 257 kts | 20° |
| 2026-05-05 16:07 | 51.29638 | -0.87846 | 8363 ft | 256 kts | 20° |
| 2026-05-05 16:07 | 51.31285 | -0.86832 | 7754 ft | 251 kts | 20° |
| 2026-05-05 16:07 | 51.32891 | -0.85842 | 7135 ft | 242 kts | 20° |
| 2026-05-05 16:08 | 51.34431 | -0.84892 | 6512 ft | 233 kts | 20° |
| 2026-05-05 16:08 | 51.35919 | -0.83972 | 5886 ft | 226 kts | 20° |
| 2026-05-05 16:08 | 51.37371 | -0.83073 | 5242 ft | 222 kts | 20° |
| 2026-05-05 16:08 | 51.38796 | -0.82190 | 4603 ft | 218 kts | 20° |
| 2026-05-05 16:09 | 51.40202 | -0.81317 | 4101 ft | 214 kts | 21° |
| 2026-05-05 16:09 | 51.41567 | -0.80470 | 4051 ft | 210 kts | 20° |
| 2026-05-05 16:09 | 51.42954 | -0.79609 | 3815 ft | 212 kts | 20° |
| 2026-05-05 16:09 | 51.44327 | -0.78756 | 3565 ft | 212 kts | 20° |
| 2026-05-05 16:10 | 51.45630 | -0.77687 | 3262 ft | 213 kts | 42° |
| 2026-05-05 16:10 | 51.46298 | -0.75636 | 3066 ft | 206 kts | 73° |
| 2026-05-05 16:10 | 51.46718 | -0.73442 | 2988 ft | 203 kts | 72° |
| 2026-05-05 16:10 | 51.47147 | -0.71352 | 2849 ft | 194 kts | 71° |
| 2026-05-05 16:11 | 51.47524 | -0.69285 | 2599 ft | 190 kts | 80° |
| 2026-05-05 16:11 | 51.47640 | -0.63237 | 1882 ft | 176 kts | 89° |
| 2026-05-05 16:12 | 51.47652 | -0.61330 | 1653 ft | 164 kts | 89° |
| 2026-05-05 16:12 | 51.47675 | -0.57909 | 1241 ft | 149 kts | 89° |
| 2026-05-05 16:13 | 51.47715 | -0.52989 | 640 ft | 145 kts | 83° |
| 2026-05-05 16:13 | 51.47767 | -0.51396 | 475 ft | 141 kts | 92° |
| 2026-05-05 16:13 | 51.47725 | -0.49803 | 297 ft | 143 kts | 85° |
| 2026-05-05 16:14 | 51.47758 | -0.46787 | 97 ft | 107 kts | 90° |
| 2026-05-05 16:14 | 51.47761 | -0.45264 | 93 ft | 20 kts | 100° |
| 2026-05-05 16:15 | 51.47604 | -0.45226 | 93 ft | 11 kts | 243° |
| 2026-05-05 16:15 | 51.47596 | -0.45297 | 95 ft | 0 kts | 268° |
| 2026-05-05 16:17 | 51.47594 | -0.45402 | 95 ft | 13 kts | 269° |
| 2026-05-05 16:17 | 51.47593 | -0.45554 | 93 ft | 14 kts | 271° |
| 2026-05-05 16:18 | 51.47595 | -0.45899 | 95 ft | 17 kts | 270° |
| 2026-05-05 16:18 | 51.47596 | -0.46095 | 95 ft | 18 kts | 270° |
| 2026-05-05 16:18 | 51.47592 | -0.46529 | 92 ft | 21 kts | 270° |
| 2026-05-05 16:19 | 51.47591 | -0.46744 | 92 ft | 16 kts | 270° |
| 2026-05-05 16:19 | 51.47567 | -0.46903 | 94 ft | 14 kts | 222° |
| 2026-05-05 16:19 | 51.47390 | -0.46872 | 95 ft | 14 kts | 168° |
| 2026-05-05 16:20 | 51.47242 | -0.46789 | 92 ft | 10 kts | 104° |
| 2026-05-05 16:20 | 51.47120 | -0.46725 | 92 ft | 12 kts | 180° |
| 2026-05-05 16:21 | 51.46960 | -0.46625 | 95 ft | 14 kts | 144° |
| 2026-05-05 16:22 | 51.46818 | -0.46446 | 95 ft | 2 kts | 95° |
| 2026-05-05 16:22 | 51.46840 | -0.46372 | 94 ft | 1 kts | 57° |
| 2026-05-05 16:23 | 51.46850 | -0.46350 | 96 ft | 0 kts | 56° |